PWSweather.com
Personal Weather Stations
Station Observations
KGAALPHA79
Alpharetta, GA 30009

Alpharetta, GA 30009

Lat: 34.06833267, Lon: -84.28405762

Elevation: 1130

Station Type: Davis Vantage

Latest ConditionsUpdated 9:14:47 AM EDT Monday, May 29, 2017
Currently Today's Max Today's Min Today's Average
Temperature 73.2°F22.9°C 73.2°F22.9°C 66.4°F19.1°C 68.3°F20.2°C
Dew Point 66.4°F19.1°C 67.1°F19.5°C 63.7°F17.6°C 64.5°F18.1°C
Winds 0.7 mph N1.1 kmh N 4.0 mph NE6.4 kmh NE - 1.1 mph 1.8 kmh
Wind Gusts 2.0 mph3.2 kmh 8.5 mph13.7 kmh - -
Humidity 79% 92% 79% 88%
Pressure 29.97 in1014.9 mb 29.98 in1015.2 mb 29.88 in1011.9 mb -
Hour Temp Dew Point Humidity Winds Wind Gusts Pressure Precip Precip Rate Daily Precip Total
09:14 AM 73.2°F22.9°C 66.4°F19.1°C 79% 0.7 mph N1.1 kmh N 2.0 mph3.2 kmh 29.97 in1014.9 mb 0.00 in0.0 mm 0.00 in0.0 mm 0.00 in0.0 mm
09:13 AM 73.2°F22.9°C 66.4°F19.1°C 79% 0.2 mph ENE0.3 kmh ENE 2.0 mph3.2 kmh 29.97 in1014.9 mb 0.00 in0.0 mm 0.00 in0.0 mm 0.00 in0.0 mm
09:11 AM 73.0°F22.8°C 66.2°F19.0°C 79% Calm Calm 1.1 mph1.8 kmh 29.96 in1014.6 mb 0.00 in0.0 mm 0.00 in0.0 mm 0.00 in0.0 mm
09:10 AM 73.0°F22.8°C 66.2°F19.0°C 79% 0.7 mph S1.1 kmh S 2.0 mph3.2 kmh 29.96 in1014.6 mb 0.00 in0.0 mm 0.00 in0.0 mm 0.00 in0.0 mm
09:09 AM 73.0°F22.8°C 66.6°F19.2°C 80% 0.9 mph SE1.4 kmh SE 4.3 mph6.9 kmh 29.97 in1014.9 mb 0.00 in0.0 mm 0.00 in0.0 mm 0.00 in0.0 mm
09:08 AM 72.9°F22.7°C 66.7°F19.3°C 81% Calm Calm 1.1 mph1.8 kmh 29.97 in1014.9 mb 0.00 in0.0 mm 0.00 in0.0 mm 0.00 in0.0 mm
09:07 AM 72.9°F22.7°C 67.1°F19.5°C 82% 1.1 mph SE1.8 kmh SE 2.0 mph3.2 kmh 29.98 in1015.2 mb 0.00 in0.0 mm 0.00 in0.0 mm 0.00 in0.0 mm
09:06 AM 72.7°F22.6°C 66.6°F19.2°C 81% 1.3 mph ESE2.1 kmh ESE 4.3 mph6.9 kmh 29.98 in1015.2 mb 0.00 in0.0 mm 0.00 in0.0 mm 0.00 in0.0 mm
09:05 AM 72.5°F22.5°C 66.7°F19.3°C 82% 1.3 mph NNE2.1 kmh NNE 5.4 mph8.7 kmh 29.97 in1014.9 mb 0.00 in0.0 mm 0.00 in0.0 mm 0.00 in0.0 mm
09:04 AM 72.3°F22.4°C 66.6°F19.2°C 82% 1.8 mph N2.9 kmh N 5.4 mph8.7 kmh 29.98 in1015.2 mb 0.00 in0.0 mm 0.00 in0.0 mm 0.00 in0.0 mm
09:03 AM 72.3°F22.4°C 66.6°F19.2°C 82% 0.7 mph NE1.1 kmh NE 3.1 mph5.0 kmh 29.98 in1015.2 mb 0.00 in0.0 mm 0.00 in0.0 mm 0.00 in0.0 mm
09:02 AM 72.1°F22.3°C 66.4°F19.1°C 82% Calm Calm -- 29.97 in1014.9 mb 0.00 in0.0 mm 0.00 in0.0 mm 0.00 in0.0 mm
09:01 AM 72.1°F22.3°C 66.0°F18.9°C 81% 0.2 mph SE0.3 kmh SE -- 29.97 in1014.9 mb 0.00 in0.0 mm 0.00 in0.0 mm 0.00 in0.0 mm
09:00 AM 72.1°F22.3°C 66.0°F18.9°C 81% 0.7 mph SE1.1 kmh SE 1.1 mph1.8 kmh 29.97 in1014.9 mb 0.00 in0.0 mm 0.00 in0.0 mm 0.00 in0.0 mm
08:59 AM 72.1°F22.3°C 66.0°F18.9°C 81% 1.6 mph ESE2.6 kmh ESE 2.0 mph3.2 kmh 29.96 in1014.6 mb 0.00 in0.0 mm 0.00 in0.0 mm 0.00 in0.0 mm
08:58 AM 72.1°F22.3°C 66.0°F18.9°C 81% 3.1 mph E5.0 kmh E 5.4 mph8.7 kmh 29.96 in1014.6 mb 0.00 in0.0 mm 0.00 in0.0 mm 0.00 in0.0 mm
08:57 AM 72.3°F22.4°C 66.6°F19.2°C 82% 2.9 mph ENE4.7 kmh ENE 5.4 mph8.7 kmh 29.97 in1014.9 mb 0.00 in0.0 mm 0.00 in0.0 mm 0.00 in0.0 mm
08:56 AM 72.3°F22.4°C 66.9°F19.4°C 83% 0.9 mph ENE1.4 kmh ENE 5.4 mph8.7 kmh 29.97 in1014.9 mb 0.00 in0.0 mm 0.00 in0.0 mm 0.00 in0.0 mm
08:55 AM 72.3°F22.4°C 66.6°F19.2°C 82% 0.9 mph E1.4 kmh E 2.0 mph3.2 kmh 29.97 in1014.9 mb 0.00 in0.0 mm 0.00 in0.0 mm 0.00 in0.0 mm
08:54 AM 72.3°F22.4°C 66.6°F19.2°C 82% 0.9 mph E1.4 kmh E 2.0 mph3.2 kmh 29.97 in1014.9 mb 0.00 in0.0 mm 0.00 in0.0 mm 0.00 in0.0 mm
08:53 AM 72.1°F22.3°C 66.7°F19.3°C 83% Calm Calm 1.1 mph1.8 kmh 29.97 in1014.9 mb 0.00 in0.0 mm 0.00 in0.0 mm 0.00 in0.0 mm
08:52 AM 72.0°F22.2°C 66.9°F19.4°C 84% 0.2 mph SE0.3 kmh SE 1.1 mph1.8 kmh 29.97 in1014.9 mb 0.00 in0.0 mm 0.00 in0.0 mm 0.00 in0.0 mm
08:51 AM 71.8°F22.1°C 66.7°F19.3°C 84% 0.7 mph N1.1 kmh N 1.1 mph1.8 kmh 29.96 in1014.6 mb 0.00 in0.0 mm 0.00 in0.0 mm 0.00 in0.0 mm
08:50 AM 71.4°F21.9°C 66.4°F19.1°C 84% 1.1 mph N1.8 kmh N 2.0 mph3.2 kmh 29.96 in1014.6 mb 0.00 in0.0 mm 0.00 in0.0 mm 0.00 in0.0 mm
08:49 AM 71.2°F21.8°C 66.6°F19.2°C 85% 0.9 mph NE1.4 kmh NE 5.4 mph8.7 kmh 29.96 in1014.6 mb 0.00 in0.0 mm 0.00 in0.0 mm 0.00 in0.0 mm
08:48 AM 71.1°F21.7°C 66.4°F19.1°C 85% 0.4 mph NNE0.6 kmh NNE 2.0 mph3.2 kmh 29.96 in1014.6 mb 0.00 in0.0 mm 0.00 in0.0 mm 0.00 in0.0 mm
08:47 AM 70.9°F21.6°C 66.2°F19.0°C 85% 0.9 mph W1.4 kmh W 2.0 mph3.2 kmh 29.97 in1014.9 mb 0.00 in0.0 mm 0.00 in0.0 mm 0.00 in0.0 mm
08:46 AM 70.7°F21.5°C 66.0°F18.9°C 85% 1.6 mph ENE2.6 kmh ENE 3.1 mph5.0 kmh 29.97 in1014.9 mb 0.00 in0.0 mm 0.00 in0.0 mm 0.00 in0.0 mm
08:45 AM 70.5°F21.4°C 65.5°F18.6°C 84% 2.2 mph E3.5 kmh E 5.4 mph8.7 kmh 29.97 in1014.9 mb 0.00 in0.0 mm 0.00 in0.0 mm 0.00 in0.0 mm
08:44 AM 70.5°F21.4°C 65.8°F18.8°C 85% 2.0 mph ENE3.2 kmh ENE 5.4 mph8.7 kmh 29.97 in1014.9 mb 0.00 in0.0 mm 0.00 in0.0 mm 0.00 in0.0 mm
08:43 AM 70.5°F21.4°C 65.8°F18.8°C 85% 1.6 mph ENE2.6 kmh ENE 4.3 mph6.9 kmh 29.97 in1014.9 mb 0.00 in0.0 mm 0.00 in0.0 mm 0.00 in0.0 mm
08:42 AM 70.3°F21.3°C 66.0°F18.9°C 86% 1.1 mph NE1.8 kmh NE 4.3 mph6.9 kmh 29.97 in1014.9 mb 0.00 in0.0 mm 0.00 in0.0 mm 0.00 in0.0 mm
08:41 AM 70.3°F21.3°C 66.0°F18.9°C 86% 2.2 mph ENE3.5 kmh ENE 4.3 mph6.9 kmh 29.97 in1014.9 mb 0.00 in0.0 mm 0.00 in0.0 mm 0.00 in0.0 mm
08:40 AM 70.3°F21.3°C 66.0°F18.9°C 86% 2.9 mph E4.7 kmh E 4.3 mph6.9 kmh 29.97 in1014.9 mb 0.00 in0.0 mm 0.00 in0.0 mm 0.00 in0.0 mm
08:39 AM 70.2°F21.2°C 66.0°F18.9°C 87% 2.0 mph E3.2 kmh E 4.3 mph6.9 kmh 29.97 in1014.9 mb 0.00 in0.0 mm 0.00 in0.0 mm 0.00 in0.0 mm
08:38 AM 70.2°F21.2°C 66.0°F18.9°C 87% 1.3 mph NE2.1 kmh NE 3.1 mph5.0 kmh 29.97 in1014.9 mb 0.00 in0.0 mm 0.00 in0.0 mm 0.00 in0.0 mm
08:36 AM 70.0°F21.1°C 66.0°F18.9°C 87% 1.1 mph E1.8 kmh E 2.0 mph3.2 kmh 29.98 in1015.2 mb 0.00 in0.0 mm 0.00 in0.0 mm 0.00 in0.0 mm
08:35 AM 70.0°F21.1°C 66.0°F18.9°C 87% 2.0 mph E3.2 kmh E 4.3 mph6.9 kmh 29.98 in1015.2 mb 0.00 in0.0 mm 0.00 in0.0 mm 0.00 in0.0 mm
08:33 AM 69.6°F20.9°C 65.7°F18.7°C 87% 0.9 mph NE1.4 kmh NE 2.0 mph3.2 kmh 29.98 in1015.2 mb 0.00 in0.0 mm 0.00 in0.0 mm 0.00 in0.0 mm
08:32 AM 69.6°F20.9°C 65.8°F18.8°C 88% 0.7 mph E1.1 kmh E 3.1 mph5.0 kmh 29.98 in1015.2 mb 0.00 in0.0 mm 0.00 in0.0 mm 0.00 in0.0 mm
08:31 AM 69.6°F20.9°C 65.8°F18.8°C 88% 0.9 mph NE1.4 kmh NE 2.0 mph3.2 kmh 29.98 in1015.2 mb 0.00 in0.0 mm 0.00 in0.0 mm 0.00 in0.0 mm
08:30 AM 69.6°F20.9°C 65.8°F18.8°C 88% 1.6 mph NE2.6 kmh NE 2.0 mph3.2 kmh 29.98 in1015.2 mb 0.00 in0.0 mm 0.00 in0.0 mm 0.00 in0.0 mm
08:29 AM 69.4°F20.8°C 65.7°F18.7°C 88% 1.3 mph N2.1 kmh N 4.3 mph6.9 kmh 29.98 in1015.2 mb 0.00 in0.0 mm 0.00 in0.0 mm 0.00 in0.0 mm
08:28 AM 69.4°F20.8°C 65.7°F18.7°C 88% 0.9 mph N1.4 kmh N 4.3 mph6.9 kmh 29.98 in1015.2 mb 0.00 in0.0 mm 0.00 in0.0 mm 0.00 in0.0 mm
08:27 AM 69.4°F20.8°C 65.7°F18.7°C 88% 1.1 mph NE1.8 kmh NE 2.0 mph3.2 kmh 29.97 in1014.9 mb 0.00 in0.0 mm 0.00 in0.0 mm 0.00 in0.0 mm
08:26 AM 69.4°F20.8°C 65.7°F18.7°C 88% 0.7 mph E1.1 kmh E 3.1 mph5.0 kmh 29.97 in1014.9 mb 0.00 in0.0 mm 0.00 in0.0 mm 0.00 in0.0 mm
08:25 AM 69.4°F20.8°C 65.7°F18.7°C 88% 0.7 mph NNE1.1 kmh NNE 2.0 mph3.2 kmh 29.98 in1015.2 mb 0.00 in0.0 mm 0.00 in0.0 mm 0.00 in0.0 mm
08:24 AM 69.3°F20.7°C 65.5°F18.6°C 88% 0.7 mph NE1.1 kmh NE 3.1 mph5.0 kmh 29.98 in1015.2 mb 0.00 in0.0 mm 0.00 in0.0 mm 0.00 in0.0 mm
08:23 AM 69.3°F20.7°C 65.5°F18.6°C 88% 0.4 mph ENE0.6 kmh ENE 1.1 mph1.8 kmh 29.97 in1014.9 mb 0.00 in0.0 mm 0.00 in0.0 mm 0.00 in0.0 mm
08:22 AM 69.3°F20.7°C 65.5°F18.6°C 88% 0.7 mph ENE1.1 kmh ENE 3.1 mph5.0 kmh 29.97 in1014.9 mb 0.00 in0.0 mm 0.00 in0.0 mm 0.00 in0.0 mm
08:21 AM 69.3°F20.7°C 65.5°F18.6°C 88% 1.1 mph NE1.8 kmh NE 2.0 mph3.2 kmh 29.97 in1014.9 mb 0.00 in0.0 mm 0.00 in0.0 mm 0.00 in0.0 mm
08:20 AM 69.3°F20.7°C 65.5°F18.6°C 88% 2.7 mph E4.3 kmh E 6.3 mph10.1 kmh 29.97 in1014.9 mb 0.00 in0.0 mm 0.00 in0.0 mm 0.00 in0.0 mm
08:19 AM 69.3°F20.7°C 65.5°F18.6°C 88% 1.8 mph SE2.9 kmh SE 8.5 mph13.7 kmh 29.98 in1015.2 mb 0.00 in0.0 mm 0.00 in0.0 mm 0.00 in0.0 mm
08:18 AM 69.3°F20.7°C 65.8°F18.8°C 89% 0.2 mph WNW0.3 kmh WNW 1.1 mph1.8 kmh 29.98 in1015.2 mb 0.00 in0.0 mm 0.00 in0.0 mm 0.00 in0.0 mm
08:17 AM 69.3°F20.7°C 65.5°F18.6°C 88% 0.9 mph NE1.4 kmh NE 2.0 mph3.2 kmh 29.97 in1014.9 mb 0.00 in0.0 mm 0.00 in0.0 mm 0.00 in0.0 mm
08:16 AM 69.1°F20.6°C 65.3°F18.5°C 88% 1.1 mph NE1.8 kmh NE 3.1 mph5.0 kmh 29.97 in1014.9 mb 0.00 in0.0 mm 0.00 in0.0 mm 0.00 in0.0 mm
08:15 AM 69.1°F20.6°C 65.7°F18.7°C 89% 0.2 mph ENE0.3 kmh ENE 2.0 mph3.2 kmh 29.97 in1014.9 mb 0.00 in0.0 mm 0.00 in0.0 mm 0.00 in0.0 mm
08:14 AM 69.1°F20.6°C 65.3°F18.5°C 88% 0.2 mph NW0.3 kmh NW 1.1 mph1.8 kmh 29.97 in1014.9 mb 0.00 in0.0 mm 0.00 in0.0 mm 0.00 in0.0 mm
08:13 AM 69.1°F20.6°C 65.3°F18.5°C 88% 0.7 mph ENE1.1 kmh ENE 2.0 mph3.2 kmh 29.97 in1014.9 mb 0.00 in0.0 mm 0.00 in0.0 mm 0.00 in0.0 mm
08:12 AM 69.1°F20.6°C 65.3°F18.5°C 88% 0.4 mph E0.6 kmh E 2.0 mph3.2 kmh 29.97 in1014.9 mb 0.00 in0.0 mm 0.00 in0.0 mm 0.00 in0.0 mm
08:11 AM 69.1°F20.6°C 65.3°F18.5°C 88% 0.9 mph ENE1.4 kmh ENE 3.1 mph5.0 kmh 29.97 in1014.9 mb 0.00 in0.0 mm 0.00 in0.0 mm 0.00 in0.0 mm
08:10 AM 69.1°F20.6°C 65.7°F18.7°C 89% 0.7 mph ENE1.1 kmh ENE 3.1 mph5.0 kmh 29.96 in1014.6 mb 0.00 in0.0 mm 0.00 in0.0 mm 0.00 in0.0 mm
08:09 AM 69.1°F20.6°C 65.7°F18.7°C 89% Calm Calm -- 29.96 in1014.6 mb 0.00 in0.0 mm 0.00 in0.0 mm 0.00 in0.0 mm
08:08 AM 68.9°F20.5°C 65.5°F18.6°C 89% 0.4 mph E0.6 kmh E 1.1 mph1.8 kmh 29.96 in1014.6 mb 0.00 in0.0 mm 0.00 in0.0 mm 0.00 in0.0 mm
08:07 AM 68.9°F20.5°C 65.5°F18.6°C 89% 0.7 mph E1.1 kmh E 2.0 mph3.2 kmh 29.96 in1014.6 mb 0.00 in0.0 mm 0.00 in0.0 mm 0.00 in0.0 mm
08:06 AM 68.9°F20.5°C 65.1°F18.4°C 88% 0.4 mph E0.6 kmh E 2.0 mph3.2 kmh 29.96 in1014.6 mb 0.00 in0.0 mm 0.00 in0.0 mm 0.00 in0.0 mm
08:05 AM 68.9°F20.5°C 65.5°F18.6°C 89% 0.4 mph ENE0.6 kmh ENE 2.0 mph3.2 kmh 29.96 in1014.6 mb 0.00 in0.0 mm 0.00 in0.0 mm 0.00 in0.0 mm
08:04 AM 68.7°F20.4°C 65.3°F18.5°C 89% Calm Calm -- 29.96 in1014.6 mb 0.00 in0.0 mm 0.00 in0.0 mm 0.00 in0.0 mm
08:03 AM 68.7°F20.4°C 65.3°F18.5°C 89% 0.4 mph E0.6 kmh E 1.1 mph1.8 kmh 29.96 in1014.6 mb 0.00 in0.0 mm 0.00 in0.0 mm 0.00 in0.0 mm
08:02 AM 68.7°F20.4°C 64.9°F18.3°C 88% 0.7 mph E1.1 kmh E 3.1 mph5.0 kmh 29.96 in1014.6 mb 0.00 in0.0 mm 0.00 in0.0 mm 0.00 in0.0 mm
08:01 AM 68.7°F20.4°C 65.3°F18.5°C 89% 0.2 mph NE0.3 kmh NE 1.1 mph1.8 kmh 29.96 in1014.6 mb 0.00 in0.0 mm 0.00 in0.0 mm 0.00 in0.0 mm
08:00 AM 68.7°F20.4°C 65.3°F18.5°C 89% 1.1 mph ESE1.8 kmh ESE 3.1 mph5.0 kmh 29.96 in1014.6 mb 0.00 in0.0 mm 0.00 in0.0 mm 0.00 in0.0 mm
07:59 AM 68.7°F20.4°C 65.3°F18.5°C 89% 1.1 mph NE1.8 kmh NE 3.1 mph5.0 kmh 29.96 in1014.6 mb 0.00 in0.0 mm 0.00 in0.0 mm 0.00 in0.0 mm
07:58 AM 68.7°F20.4°C 65.3°F18.5°C 89% 0.9 mph E1.4 kmh E 2.0 mph3.2 kmh 29.96 in1014.6 mb 0.00 in0.0 mm 0.00 in0.0 mm 0.00 in0.0 mm
07:57 AM 68.7°F20.4°C 65.3°F18.5°C 89% 1.8 mph E2.9 kmh E 3.1 mph5.0 kmh 29.96 in1014.6 mb 0.00 in0.0 mm 0.00 in0.0 mm 0.00 in0.0 mm
07:56 AM 68.7°F20.4°C 65.3°F18.5°C 89% 1.8 mph E2.9 kmh E 4.3 mph6.9 kmh 29.96 in1014.6 mb 0.00 in0.0 mm 0.00 in0.0 mm 0.00 in0.0 mm
07:55 AM 68.5°F20.3°C 65.1°F18.4°C 89% 0.7 mph E1.1 kmh E 2.0 mph3.2 kmh 29.96 in1014.6 mb 0.00 in0.0 mm 0.00 in0.0 mm 0.00 in0.0 mm
07:54 AM 68.5°F20.3°C 65.1°F18.4°C 89% 0.2 mph E0.3 kmh E 1.1 mph1.8 kmh 29.96 in1014.6 mb 0.00 in0.0 mm 0.00 in0.0 mm 0.00 in0.0 mm
07:53 AM 68.5°F20.3°C 65.1°F18.4°C 89% 0.2 mph ENE0.3 kmh ENE 1.1 mph1.8 kmh 29.96 in1014.6 mb 0.00 in0.0 mm 0.00 in0.0 mm 0.00 in0.0 mm
07:52 AM 68.5°F20.3°C 65.1°F18.4°C 89% 0.4 mph ENE0.6 kmh ENE 2.0 mph3.2 kmh 29.96 in1014.6 mb 0.00 in0.0 mm 0.00 in0.0 mm 0.00 in0.0 mm
07:51 AM 68.5°F20.3°C 65.1°F18.4°C 89% 0.4 mph E0.6 kmh E 2.0 mph3.2 kmh 29.96 in1014.6 mb 0.00 in0.0 mm 0.00 in0.0 mm 0.00 in0.0 mm
07:50 AM 68.5°F20.3°C 65.5°F18.6°C 90% 0.2 mph E0.3 kmh E 1.1 mph1.8 kmh 29.96 in1014.6 mb 0.00 in0.0 mm 0.00 in0.0 mm 0.00 in0.0 mm
07:49 AM 68.5°F20.3°C 65.5°F18.6°C 90% 0.4 mph E0.6 kmh E 1.1 mph1.8 kmh 29.96 in1014.6 mb 0.00 in0.0 mm 0.00 in0.0 mm 0.00 in0.0 mm
07:48 AM 68.5°F20.3°C 65.5°F18.6°C 90% 0.9 mph E1.4 kmh E 2.0 mph3.2 kmh 29.96 in1014.6 mb 0.00 in0.0 mm 0.00 in0.0 mm 0.00 in0.0 mm
07:47 AM 68.4°F20.2°C 65.3°F18.5°C 90% 1.1 mph ENE1.8 kmh ENE 3.1 mph5.0 kmh 29.96 in1014.6 mb 0.00 in0.0 mm 0.00 in0.0 mm 0.00 in0.0 mm
07:46 AM 68.4°F20.2°C 65.3°F18.5°C 90% 0.7 mph E1.1 kmh E 2.0 mph3.2 kmh 29.96 in1014.6 mb 0.00 in0.0 mm 0.00 in0.0 mm 0.00 in0.0 mm
07:45 AM 68.4°F20.2°C 65.3°F18.5°C 90% 0.4 mph E0.6 kmh E 2.0 mph3.2 kmh 29.96 in1014.6 mb 0.00 in0.0 mm 0.00 in0.0 mm 0.00 in0.0 mm
07:44 AM 68.4°F20.2°C 65.3°F18.5°C 90% 0.7 mph ENE1.1 kmh ENE 1.1 mph1.8 kmh 29.96 in1014.6 mb 0.00 in0.0 mm 0.00 in0.0 mm 0.00 in0.0 mm
07:43 AM 68.4°F20.2°C 65.3°F18.5°C 90% 0.7 mph ENE1.1 kmh ENE 2.0 mph3.2 kmh 29.96 in1014.6 mb 0.00 in0.0 mm 0.00 in0.0 mm 0.00 in0.0 mm
07:42 AM 68.2°F20.1°C 65.1°F18.4°C 90% 1.1 mph E1.8 kmh E 3.1 mph5.0 kmh 29.96 in1014.6 mb 0.00 in0.0 mm 0.00 in0.0 mm 0.00 in0.0 mm
07:41 AM 68.2°F20.1°C 65.1°F18.4°C 90% 1.1 mph E1.8 kmh E 3.1 mph5.0 kmh 29.96 in1014.6 mb 0.00 in0.0 mm 0.00 in0.0 mm 0.00 in0.0 mm
07:40 AM 68.2°F20.1°C 65.1°F18.4°C 90% 0.7 mph ENE1.1 kmh ENE 1.1 mph1.8 kmh 29.96 in1014.6 mb 0.00 in0.0 mm 0.00 in0.0 mm 0.00 in0.0 mm
07:39 AM 68.2°F20.1°C 65.1°F18.4°C 90% 0.9 mph NE1.4 kmh NE 3.1 mph5.0 kmh 29.96 in1014.6 mb 0.00 in0.0 mm 0.00 in0.0 mm 0.00 in0.0 mm
07:38 AM 68.0°F20.0°C 64.9°F18.3°C 90% 0.9 mph ENE1.4 kmh ENE 3.1 mph5.0 kmh 29.96 in1014.6 mb 0.00 in0.0 mm 0.00 in0.0 mm 0.00 in0.0 mm
07:37 AM 67.8°F19.9°C 64.8°F18.2°C 90% 1.1 mph ENE1.8 kmh ENE 3.1 mph5.0 kmh 29.96 in1014.6 mb 0.00 in0.0 mm 0.00 in0.0 mm 0.00 in0.0 mm
07:36 AM 67.8°F19.9°C 65.1°F18.4°C 91% 0.7 mph ENE1.1 kmh ENE 3.1 mph5.0 kmh 29.96 in1014.6 mb 0.00 in0.0 mm 0.00 in0.0 mm 0.00 in0.0 mm
07:35 AM 67.8°F19.9°C 65.1°F18.4°C 91% 0.9 mph E1.4 kmh E 1.1 mph1.8 kmh 29.96 in1014.6 mb 0.00 in0.0 mm 0.00 in0.0 mm 0.00 in0.0 mm
07:34 AM 67.6°F19.8°C 64.9°F18.3°C 91% 0.9 mph ENE1.4 kmh ENE 2.0 mph3.2 kmh 29.96 in1014.6 mb 0.00 in0.0 mm 0.00 in0.0 mm 0.00 in0.0 mm
07:33 AM 67.6°F19.8°C 64.9°F18.3°C 91% 1.6 mph NE2.6 kmh NE 2.0 mph3.2 kmh 29.96 in1014.6 mb 0.00 in0.0 mm 0.00 in0.0 mm 0.00 in0.0 mm
07:32 AM 67.6°F19.8°C 64.9°F18.3°C 91% 2.0 mph ENE3.2 kmh ENE 5.4 mph8.7 kmh 29.95 in1014.2 mb 0.00 in0.0 mm 0.00 in0.0 mm 0.00 in0.0 mm
07:31 AM 67.5°F19.7°C 64.8°F18.2°C 91% 1.1 mph NE1.8 kmh NE 3.1 mph5.0 kmh 29.95 in1014.2 mb 0.00 in0.0 mm 0.00 in0.0 mm 0.00 in0.0 mm
07:30 AM 67.5°F19.7°C 64.8°F18.2°C 91% 0.7 mph ENE1.1 kmh ENE 3.1 mph5.0 kmh 29.95 in1014.2 mb 0.00 in0.0 mm 0.00 in0.0 mm 0.00 in0.0 mm
07:29 AM 67.5°F19.7°C 64.8°F18.2°C 91% 0.9 mph N1.4 kmh N 2.0 mph3.2 kmh 29.95 in1014.2 mb 0.00 in0.0 mm 0.00 in0.0 mm 0.00 in0.0 mm
07:28 AM 67.5°F19.7°C 64.8°F18.2°C 91% 0.9 mph NE1.4 kmh NE 2.0 mph3.2 kmh 29.95 in1014.2 mb 0.00 in0.0 mm 0.00 in0.0 mm 0.00 in0.0 mm
07:27 AM 67.5°F19.7°C 64.8°F18.2°C 91% 1.3 mph NE2.1 kmh NE 2.0 mph3.2 kmh 29.95 in1014.2 mb 0.00 in0.0 mm 0.00 in0.0 mm 0.00 in0.0 mm
07:26 AM 67.3°F19.6°C 64.6°F18.1°C 91% 1.6 mph ENE2.6 kmh ENE 2.0 mph3.2 kmh 29.95 in1014.2 mb 0.00 in0.0 mm 0.00 in0.0 mm 0.00 in0.0 mm
07:25 AM 67.3°F19.6°C 64.6°F18.1°C 91% 1.6 mph NNE2.6 kmh NNE 3.1 mph5.0 kmh 29.95 in1014.2 mb 0.00 in0.0 mm 0.00 in0.0 mm 0.00 in0.0 mm
07:24 AM 67.3°F19.6°C 64.6°F18.1°C 91% 1.3 mph NNE2.1 kmh NNE 3.1 mph5.0 kmh 29.95 in1014.2 mb 0.00 in0.0 mm 0.00 in0.0 mm 0.00 in0.0 mm
07:23 AM 67.3°F19.6°C 64.6°F18.1°C 91% 0.7 mph NE1.1 kmh NE 2.0 mph3.2 kmh 29.95 in1014.2 mb 0.00 in0.0 mm 0.00 in0.0 mm 0.00 in0.0 mm
07:22 AM 67.1°F19.5°C 64.4°F18.0°C 91% 0.4 mph ENE0.6 kmh ENE 1.1 mph1.8 kmh 29.95 in1014.2 mb 0.00 in0.0 mm 0.00 in0.0 mm 0.00 in0.0 mm
07:21 AM 67.1°F19.5°C 64.8°F18.2°C 92% 0.2 mph ENE0.3 kmh ENE 1.1 mph1.8 kmh 29.95 in1014.2 mb 0.00 in0.0 mm 0.00 in0.0 mm 0.00 in0.0 mm
07:20 AM 66.9°F19.4°C 64.6°F18.1°C 92% 0.2 mph ENE0.3 kmh ENE 1.1 mph1.8 kmh 29.95 in1014.2 mb 0.00 in0.0 mm 0.00 in0.0 mm 0.00 in0.0 mm
07:19 AM 66.9°F19.4°C 64.6°F18.1°C 92% Calm Calm 1.1 mph1.8 kmh 29.95 in1014.2 mb 0.00 in0.0 mm 0.00 in0.0 mm 0.00 in0.0 mm
07:18 AM 66.7°F19.3°C 64.4°F18.0°C 92% 0.4 mph ENE0.6 kmh ENE 1.1 mph1.8 kmh 29.95 in1014.2 mb 0.00 in0.0 mm 0.00 in0.0 mm 0.00 in0.0 mm
07:17 AM 66.7°F19.3°C 64.4°F18.0°C 92% 0.9 mph ENE1.4 kmh ENE 3.1 mph5.0 kmh 29.95 in1014.2 mb 0.00 in0.0 mm 0.00 in0.0 mm 0.00 in0.0 mm
07:16 AM 66.7°F19.3°C 64.4°F18.0°C 92% 1.3 mph ENE2.1 kmh ENE 3.1 mph5.0 kmh 29.95 in1014.2 mb 0.00 in0.0 mm 0.00 in0.0 mm 0.00 in0.0 mm
07:15 AM 66.6°F19.2°C 64.2°F17.9°C 92% 1.3 mph NNE2.1 kmh NNE 3.1 mph5.0 kmh 29.95 in1014.2 mb 0.00 in0.0 mm 0.00 in0.0 mm 0.00 in0.0 mm
07:14 AM 66.6°F19.2°C 64.2°F17.9°C 92% 0.7 mph NE1.1 kmh NE 2.0 mph3.2 kmh 29.95 in1014.2 mb 0.00 in0.0 mm 0.00 in0.0 mm 0.00 in0.0 mm
07:13 AM 66.6°F19.2°C 64.2°F17.9°C 92% Calm Calm 1.1 mph1.8 kmh 29.94 in1013.9 mb 0.00 in0.0 mm 0.00 in0.0 mm 0.00 in0.0 mm
07:12 AM 66.6°F19.2°C 64.2°F17.9°C 92% Calm Calm -- 29.95 in1014.2 mb 0.00 in0.0 mm 0.00 in0.0 mm 0.00 in0.0 mm
07:11 AM 66.6°F19.2°C 64.2°F17.9°C 92% 0.2 mph NE0.3 kmh NE -- 29.95 in1014.2 mb 0.00 in0.0 mm 0.00 in0.0 mm 0.00 in0.0 mm
07:10 AM 66.6°F19.2°C 64.2°F17.9°C 92% 0.9 mph NE1.4 kmh NE 1.1 mph1.8 kmh 29.94 in1013.9 mb 0.00 in0.0 mm 0.00 in0.0 mm 0.00 in0.0 mm
07:09 AM 66.4°F19.1°C 64.0°F17.8°C 92% 0.9 mph ENE1.4 kmh ENE 2.0 mph3.2 kmh 29.95 in1014.2 mb 0.00 in0.0 mm 0.00 in0.0 mm 0.00 in0.0 mm
07:08 AM 66.4°F19.1°C 64.0°F17.8°C 92% 0.4 mph NE0.6 kmh NE 2.0 mph3.2 kmh 29.94 in1013.9 mb 0.00 in0.0 mm 0.00 in0.0 mm 0.00 in0.0 mm
07:07 AM 66.4°F19.1°C 64.0°F17.8°C 92% Calm Calm 1.1 mph1.8 kmh 29.94 in1013.9 mb 0.00 in0.0 mm 0.00 in0.0 mm 0.00 in0.0 mm
07:06 AM 66.6°F19.2°C 64.2°F17.9°C 92% Calm Calm 1.1 mph1.8 kmh 29.94 in1013.9 mb 0.00 in0.0 mm 0.00 in0.0 mm 0.00 in0.0 mm
07:05 AM 66.6°F19.2°C 64.2°F17.9°C 92% Calm Calm 1.1 mph1.8 kmh 29.94 in1013.9 mb 0.00 in0.0 mm 0.00 in0.0 mm 0.00 in0.0 mm
07:04 AM 66.6°F19.2°C 64.2°F17.9°C 92% Calm Calm 1.1 mph1.8 kmh 29.94 in1013.9 mb 0.00 in0.0 mm 0.00 in0.0 mm 0.00 in0.0 mm
07:03 AM 66.6°F19.2°C 63.9°F17.7°C 91% 0.2 mph NE0.3 kmh NE -- 29.94 in1013.9 mb 0.00 in0.0 mm 0.00 in0.0 mm 0.00 in0.0 mm
07:02 AM 66.6°F19.2°C 63.9°F17.7°C 91% 0.2 mph NE0.3 kmh NE 1.1 mph1.8 kmh 29.94 in1013.9 mb 0.00 in0.0 mm 0.00 in0.0 mm 0.00 in0.0 mm
07:01 AM 66.6°F19.2°C 63.9°F17.7°C 91% Calm Calm 1.1 mph1.8 kmh 29.94 in1013.9 mb 0.00 in0.0 mm 0.00 in0.0 mm 0.00 in0.0 mm
07:00 AM 66.6°F19.2°C 63.9°F17.7°C 91% Calm Calm -- 29.94 in1013.9 mb 0.00 in0.0 mm 0.00 in0.0 mm 0.00 in0.0 mm
06:59 AM 66.7°F19.3°C 64.0°F17.8°C 91% Calm Calm 1.1 mph1.8 kmh 29.94 in1013.9 mb 0.00 in0.0 mm 0.00 in0.0 mm 0.00 in0.0 mm
06:58 AM 66.7°F19.3°C 64.0°F17.8°C 91% Calm Calm -- 29.94 in1013.9 mb 0.00 in0.0 mm 0.00 in0.0 mm 0.00 in0.0 mm
06:57 AM 66.7°F19.3°C 64.0°F17.8°C 91% Calm Calm -- 29.94 in1013.9 mb 0.00 in0.0 mm 0.00 in0.0 mm 0.00 in0.0 mm
06:56 AM 66.7°F19.3°C 64.0°F17.8°C 91% Calm Calm -- 29.94 in1013.9 mb 0.00 in0.0 mm 0.00 in0.0 mm 0.00 in0.0 mm
06:55 AM 66.7°F19.3°C 64.0°F17.8°C 91% Calm Calm -- 29.94 in1013.9 mb 0.00 in0.0 mm 0.00 in0.0 mm 0.00 in0.0 mm
06:54 AM 66.9°F19.4°C 64.2°F17.9°C 91% Calm Calm -- 29.94 in1013.9 mb 0.00 in0.0 mm 0.00 in0.0 mm 0.00 in0.0 mm
06:53 AM 66.9°F19.4°C 64.2°F17.9°C 91% 0.2 mph NE0.3 kmh NE 1.1 mph1.8 kmh 29.94 in1013.9 mb 0.00 in0.0 mm 0.00 in0.0 mm 0.00 in0.0 mm
06:52 AM 66.9°F19.4°C 64.2°F17.9°C 91% 0.2 mph NE0.3 kmh NE 2.0 mph3.2 kmh 29.94 in1013.9 mb 0.00 in0.0 mm 0.00 in0.0 mm 0.00 in0.0 mm
06:51 AM 66.9°F19.4°C 63.9°F17.7°C 90% 0.7 mph NE1.1 kmh NE 2.0 mph3.2 kmh 29.94 in1013.9 mb 0.00 in0.0 mm 0.00 in0.0 mm 0.00 in0.0 mm
06:50 AM 66.9°F19.4°C 63.9°F17.7°C 90% 0.9 mph NE1.4 kmh NE 4.3 mph6.9 kmh 29.94 in1013.9 mb 0.00 in0.0 mm 0.00 in0.0 mm 0.00 in0.0 mm
06:49 AM 66.9°F19.4°C 63.9°F17.7°C 90% 0.7 mph E1.1 kmh E 4.3 mph6.9 kmh 29.95 in1014.2 mb 0.00 in0.0 mm 0.00 in0.0 mm 0.00 in0.0 mm
06:48 AM 67.1°F19.5°C 64.0°F17.8°C 90% 0.2 mph N0.3 kmh N 2.0 mph3.2 kmh 29.95 in1014.2 mb 0.00 in0.0 mm 0.00 in0.0 mm 0.00 in0.0 mm
06:47 AM 67.1°F19.5°C 64.0°F17.8°C 90% Calm Calm 2.0 mph3.2 kmh 29.95 in1014.2 mb 0.00 in0.0 mm 0.00 in0.0 mm 0.00 in0.0 mm
06:46 AM 67.1°F19.5°C 64.0°F17.8°C 90% Calm Calm -- 29.95 in1014.2 mb 0.00 in0.0 mm 0.00 in0.0 mm 0.00 in0.0 mm
06:45 AM 67.3°F19.6°C 64.2°F17.9°C 90% Calm Calm -- 29.95 in1014.2 mb 0.00 in0.0 mm 0.00 in0.0 mm 0.00 in0.0 mm
06:44 AM 67.3°F19.6°C 64.2°F17.9°C 90% Calm Calm -- 29.95 in1014.2 mb 0.00 in0.0 mm 0.00 in0.0 mm 0.00 in0.0 mm
06:43 AM 67.3°F19.6°C 64.2°F17.9°C 90% Calm Calm -- 29.95 in1014.2 mb 0.00 in0.0 mm 0.00 in0.0 mm 0.00 in0.0 mm
06:42 AM 67.3°F19.6°C 63.9°F17.7°C 89% Calm Calm 1.1 mph1.8 kmh 29.95 in1014.2 mb 0.00 in0.0 mm 0.00 in0.0 mm 0.00 in0.0 mm
06:41 AM 67.5°F19.7°C 64.0°F17.8°C 89% Calm Calm -- 29.95 in1014.2 mb 0.00 in0.0 mm 0.00 in0.0 mm 0.00 in0.0 mm
06:40 AM 67.5°F19.7°C 64.0°F17.8°C 89% Calm Calm -- 29.95 in1014.2 mb 0.00 in0.0 mm 0.00 in0.0 mm 0.00 in0.0 mm
06:39 AM 67.5°F19.7°C 64.0°F17.8°C 89% Calm Calm -- 29.94 in1013.9 mb 0.00 in0.0 mm 0.00 in0.0 mm 0.00 in0.0 mm
06:38 AM 67.5°F19.7°C 64.0°F17.8°C 89% Calm Calm -- 29.94 in1013.9 mb 0.00 in0.0 mm 0.00 in0.0 mm 0.00 in0.0 mm
06:37 AM 67.5°F19.7°C 64.0°F17.8°C 89% 0.2 mph ESE0.3 kmh ESE -- 29.94 in1013.9 mb 0.00 in0.0 mm 0.00 in0.0 mm 0.00 in0.0 mm
06:36 AM 67.6°F19.8°C 64.2°F17.9°C 89% 0.4 mph ESE0.6 kmh ESE 2.0 mph3.2 kmh 29.94 in1013.9 mb 0.00 in0.0 mm 0.00 in0.0 mm 0.00 in0.0 mm
06:35 AM 67.6°F19.8°C 64.2°F17.9°C 89% 0.2 mph ESE0.3 kmh ESE 1.1 mph1.8 kmh 29.94 in1013.9 mb 0.00 in0.0 mm 0.00 in0.0 mm 0.00 in0.0 mm
06:34 AM 67.6°F19.8°C 64.2°F17.9°C 89% 0.2 mph ESE0.3 kmh ESE 1.1 mph1.8 kmh 29.94 in1013.9 mb 0.00 in0.0 mm 0.00 in0.0 mm 0.00 in0.0 mm
06:33 AM 67.6°F19.8°C 64.2°F17.9°C 89% 0.2 mph ESE0.3 kmh ESE 1.1 mph1.8 kmh 29.94 in1013.9 mb 0.00 in0.0 mm 0.00 in0.0 mm 0.00 in0.0 mm
06:32 AM 67.6°F19.8°C 64.2°F17.9°C 89% Calm Calm 1.1 mph1.8 kmh 29.94 in1013.9 mb 0.00 in0.0 mm 0.00 in0.0 mm 0.00 in0.0 mm
06:31 AM 67.6°F19.8°C 64.2°F17.9°C 89% 0.2 mph SE0.3 kmh SE 1.1 mph1.8 kmh 29.94 in1013.9 mb 0.00 in0.0 mm 0.00 in0.0 mm 0.00 in0.0 mm
06:30 AM 67.6°F19.8°C 64.2°F17.9°C 89% 0.2 mph SE0.3 kmh SE 1.1 mph1.8 kmh 29.94 in1013.9 mb 0.00 in0.0 mm 0.00 in0.0 mm 0.00 in0.0 mm
06:29 AM 67.6°F19.8°C 64.2°F17.9°C 89% Calm Calm 1.1 mph1.8 kmh 29.94 in1013.9 mb 0.00 in0.0 mm 0.00 in0.0 mm 0.00 in0.0 mm
06:28 AM 67.6°F19.8°C 64.2°F17.9°C 89% Calm Calm 1.1 mph1.8 kmh 29.94 in1013.9 mb 0.00 in0.0 mm 0.00 in0.0 mm 0.00 in0.0 mm
06:27 AM 67.8°F19.9°C 64.4°F18.0°C 89% 0.7 mph E1.1 kmh E 2.0 mph3.2 kmh 29.94 in1013.9 mb 0.00 in0.0 mm 0.00 in0.0 mm 0.00 in0.0 mm
06:26 AM 67.8°F19.9°C 64.2°F17.9°C 88% 0.7 mph E1.1 kmh E 4.3 mph6.9 kmh 29.94 in1013.9 mb 0.00 in0.0 mm 0.00 in0.0 mm 0.00 in0.0 mm
06:25 AM 67.8°F19.9°C 64.2°F17.9°C 88% Calm Calm -- 29.94 in1013.9 mb 0.00 in0.0 mm 0.00 in0.0 mm 0.00 in0.0 mm
06:24 AM 67.8°F19.9°C 64.2°F17.9°C 88% Calm Calm -- 29.94 in1013.9 mb 0.00 in0.0 mm 0.00 in0.0 mm 0.00 in0.0 mm
06:23 AM 67.8°F19.9°C 64.2°F17.9°C 88% Calm Calm -- 29.94 in1013.9 mb 0.00 in0.0 mm 0.00 in0.0 mm 0.00 in0.0 mm
06:22 AM 67.8°F19.9°C 64.2°F17.9°C 88% Calm Calm -- 29.94 in1013.9 mb 0.00 in0.0 mm 0.00 in0.0 mm 0.00 in0.0 mm
06:21 AM 68.0°F20.0°C 64.4°F18.0°C 88% Calm Calm -- 29.94 in1013.9 mb 0.00 in0.0 mm 0.00 in0.0 mm 0.00 in0.0 mm
06:20 AM 68.0°F20.0°C 64.4°F18.0°C 88% 0.2 mph NNE0.3 kmh NNE -- 29.94 in1013.9 mb 0.00 in0.0 mm 0.00 in0.0 mm 0.00 in0.0 mm
06:19 AM 68.0°F20.0°C 64.4°F18.0°C 88% 0.4 mph NNE0.6 kmh NNE 1.1 mph1.8 kmh 29.94 in1013.9 mb 0.00 in0.0 mm 0.00 in0.0 mm 0.00 in0.0 mm
06:18 AM 68.0°F20.0°C 64.4°F18.0°C 88% 0.7 mph ENE1.1 kmh ENE 2.0 mph3.2 kmh 29.94 in1013.9 mb 0.00 in0.0 mm 0.00 in0.0 mm 0.00 in0.0 mm
06:17 AM 68.0°F20.0°C 64.4°F18.0°C 88% 0.4 mph S0.6 kmh S 2.0 mph3.2 kmh 29.94 in1013.9 mb 0.00 in0.0 mm 0.00 in0.0 mm 0.00 in0.0 mm
06:16 AM 68.2°F20.1°C 64.4°F18.0°C 88% 0.7 mph NNE1.1 kmh NNE 2.0 mph3.2 kmh 29.94 in1013.9 mb 0.00 in0.0 mm 0.00 in0.0 mm 0.00 in0.0 mm
06:15 AM 68.0°F20.0°C 64.4°F18.0°C 88% 0.9 mph SW1.4 kmh SW 2.0 mph3.2 kmh 29.94 in1013.9 mb 0.00 in0.0 mm 0.00 in0.0 mm 0.00 in0.0 mm
06:14 AM 68.2°F20.1°C 64.4°F18.0°C 88% 0.4 mph E0.6 kmh E 2.0 mph3.2 kmh 29.94 in1013.9 mb 0.00 in0.0 mm 0.00 in0.0 mm 0.00 in0.0 mm
06:13 AM 68.2°F20.1°C 64.4°F18.0°C 88% Calm Calm 1.1 mph1.8 kmh 29.94 in1013.9 mb 0.00 in0.0 mm 0.00 in0.0 mm 0.00 in0.0 mm
06:12 AM 68.2°F20.1°C 64.4°F18.0°C 88% Calm Calm 1.1 mph1.8 kmh 29.94 in1013.9 mb 0.00 in0.0 mm 0.00 in0.0 mm 0.00 in0.0 mm
06:11 AM 68.2°F20.1°C 64.4°F18.0°C 88% 0.2 mph ENE0.3 kmh ENE 1.1 mph1.8 kmh 29.94 in1013.9 mb 0.00 in0.0 mm 0.00 in0.0 mm 0.00 in0.0 mm
06:10 AM 68.2°F20.1°C 64.4°F18.0°C 88% 0.2 mph WSW0.3 kmh WSW 1.1 mph1.8 kmh 29.94 in1013.9 mb 0.00 in0.0 mm 0.00 in0.0 mm 0.00 in0.0 mm
06:09 AM 68.2°F20.1°C 64.4°F18.0°C 88% 1.3 mph E2.1 kmh E 2.0 mph3.2 kmh 29.94 in1013.9 mb 0.00 in0.0 mm 0.00 in0.0 mm 0.00 in0.0 mm
06:08 AM 68.2°F20.1°C 64.4°F18.0°C 88% 2.0 mph E3.2 kmh E 4.3 mph6.9 kmh 29.94 in1013.9 mb 0.00 in0.0 mm 0.00 in0.0 mm 0.00 in0.0 mm
06:07 AM 68.2°F20.1°C 64.4°F18.0°C 88% 2.2 mph E3.5 kmh E 5.4 mph8.7 kmh 29.94 in1013.9 mb 0.00 in0.0 mm 0.00 in0.0 mm 0.00 in0.0 mm
06:06 AM 68.2°F20.1°C 64.4°F18.0°C 88% 2.0 mph ENE3.2 kmh ENE 5.4 mph8.7 kmh 29.94 in1013.9 mb 0.00 in0.0 mm 0.00 in0.0 mm 0.00 in0.0 mm
06:05 AM 68.2°F20.1°C 64.4°F18.0°C 88% 1.1 mph E1.8 kmh E 3.1 mph5.0 kmh 29.94 in1013.9 mb 0.00 in0.0 mm 0.00 in0.0 mm 0.00 in0.0 mm
06:04 AM 68.2°F20.1°C 64.4°F18.0°C 88% 0.7 mph ENE1.1 kmh ENE 1.1 mph1.8 kmh 29.94 in1013.9 mb 0.00 in0.0 mm 0.00 in0.0 mm 0.00 in0.0 mm
06:03 AM 68.2°F20.1°C 64.4°F18.0°C 88% 1.3 mph NE2.1 kmh NE 2.0 mph3.2 kmh 29.94 in1013.9 mb 0.00 in0.0 mm 0.00 in0.0 mm 0.00 in0.0 mm
06:02 AM 68.2°F20.1°C 64.4°F18.0°C 88% 2.7 mph NW4.3 kmh NW 4.3 mph6.9 kmh 29.94 in1013.9 mb 0.00 in0.0 mm 0.00 in0.0 mm 0.00 in0.0 mm
06:01 AM 68.2°F20.1°C 64.4°F18.0°C 88% 2.2 mph NE3.5 kmh NE 6.3 mph10.1 kmh 29.94 in1013.9 mb 0.00 in0.0 mm 0.00 in0.0 mm 0.00 in0.0 mm
06:00 AM 68.2°F20.1°C 64.4°F18.0°C 88% 1.1 mph E1.8 kmh E 3.1 mph5.0 kmh 29.94 in1013.9 mb 0.00 in0.0 mm 0.00 in0.0 mm 0.00 in0.0 mm
05:59 AM 68.2°F20.1°C 64.4°F18.0°C 88% 2.0 mph E3.2 kmh E 4.3 mph6.9 kmh 29.94 in1013.9 mb 0.00 in0.0 mm 0.00 in0.0 mm 0.00 in0.0 mm
05:58 AM 68.2°F20.1°C 64.4°F18.0°C 88% 1.8 mph E2.9 kmh E 4.3 mph6.9 kmh 29.94 in1013.9 mb 0.00 in0.0 mm 0.00 in0.0 mm 0.00 in0.0 mm
05:57 AM 68.2°F20.1°C 64.4°F18.0°C 88% 1.1 mph ESE1.8 kmh ESE 3.1 mph5.0 kmh 29.95 in1014.2 mb 0.00 in0.0 mm 0.00 in0.0 mm 0.00 in0.0 mm
05:56 AM 68.2°F20.1°C 64.4°F18.0°C 88% 1.6 mph ENE2.6 kmh ENE 4.3 mph6.9 kmh 29.94 in1013.9 mb 0.00 in0.0 mm 0.00 in0.0 mm 0.00 in0.0 mm
05:55 AM 68.2°F20.1°C 64.4°F18.0°C 88% 1.6 mph ENE2.6 kmh ENE 4.3 mph6.9 kmh 29.95 in1014.2 mb 0.00 in0.0 mm 0.00 in0.0 mm 0.00 in0.0 mm
05:54 AM 68.2°F20.1°C 64.4°F18.0°C 88% 1.3 mph WNW2.1 kmh WNW 3.1 mph5.0 kmh 29.95 in1014.2 mb 0.00 in0.0 mm 0.00 in0.0 mm 0.00 in0.0 mm
05:53 AM 68.2°F20.1°C 64.4°F18.0°C 88% 1.1 mph E1.8 kmh E 3.1 mph5.0 kmh 29.95 in1014.2 mb 0.00 in0.0 mm 0.00 in0.0 mm 0.00 in0.0 mm
05:52 AM 68.2°F20.1°C 64.4°F18.0°C 88% 1.1 mph E1.8 kmh E 3.1 mph5.0 kmh 29.95 in1014.2 mb 0.00 in0.0 mm 0.00 in0.0 mm 0.00 in0.0 mm
05:51 AM 68.2°F20.1°C 64.4°F18.0°C 88% 2.0 mph SE3.2 kmh SE 3.1 mph5.0 kmh 29.95 in1014.2 mb 0.00 in0.0 mm 0.00 in0.0 mm 0.00 in0.0 mm
05:50 AM 68.2°F20.1°C 64.4°F18.0°C 88% 3.1 mph E5.0 kmh E 7.4 mph11.9 kmh 29.95 in1014.2 mb 0.00 in0.0 mm 0.00 in0.0 mm 0.00 in0.0 mm
05:49 AM 68.2°F20.1°C 64.4°F18.0°C 88% 2.7 mph E4.3 kmh E 7.4 mph11.9 kmh 29.95 in1014.2 mb 0.00 in0.0 mm 0.00 in0.0 mm 0.00 in0.0 mm
05:48 AM 68.2°F20.1°C 64.4°F18.0°C 88% 1.6 mph NE2.6 kmh NE 3.1 mph5.0 kmh 29.95 in1014.2 mb 0.00 in0.0 mm 0.00 in0.0 mm 0.00 in0.0 mm
05:47 AM 68.2°F20.1°C 64.4°F18.0°C 88% 2.7 mph E4.3 kmh E 3.1 mph5.0 kmh 29.95 in1014.2 mb 0.00 in0.0 mm 0.00 in0.0 mm 0.00 in0.0 mm
05:46 AM 68.2°F20.1°C 64.4°F18.0°C 88% 1.8 mph E2.9 kmh E 6.3 mph10.1 kmh 29.95 in1014.2 mb 0.00 in0.0 mm 0.00 in0.0 mm 0.00 in0.0 mm
05:45 AM 68.2°F20.1°C 64.4°F18.0°C 88% 0.7 mph E1.1 kmh E 5.4 mph8.7 kmh 29.95 in1014.2 mb 0.00 in0.0 mm 0.00 in0.0 mm 0.00 in0.0 mm
05:44 AM 68.2°F20.1°C 64.4°F18.0°C 88% 0.9 mph E1.4 kmh E 3.1 mph5.0 kmh 29.95 in1014.2 mb 0.00 in0.0 mm 0.00 in0.0 mm 0.00 in0.0 mm
05:43 AM 68.2°F20.1°C 64.4°F18.0°C 88% 0.9 mph ENE1.4 kmh ENE 2.0 mph3.2 kmh 29.95 in1014.2 mb 0.00 in0.0 mm 0.00 in0.0 mm 0.00 in0.0 mm
05:42 AM 68.2°F20.1°C 64.4°F18.0°C 88% 0.4 mph E0.6 kmh E 2.0 mph3.2 kmh 29.95 in1014.2 mb 0.00 in0.0 mm 0.00 in0.0 mm 0.00 in0.0 mm
05:41 AM 68.2°F20.1°C 64.4°F18.0°C 88% 0.2 mph NNE0.3 kmh NNE -- 29.95 in1014.2 mb 0.00 in0.0 mm 0.00 in0.0 mm 0.00 in0.0 mm
05:40 AM 68.2°F20.1°C 64.4°F18.0°C 88% 0.4 mph NNE0.6 kmh NNE 3.1 mph5.0 kmh 29.94 in1013.9 mb 0.00 in0.0 mm 0.00 in0.0 mm 0.00 in0.0 mm
05:39 AM 68.2°F20.1°C 64.4°F18.0°C 88% 0.7 mph WSW1.1 kmh WSW 3.1 mph5.0 kmh 29.95 in1014.2 mb 0.00 in0.0 mm 0.00 in0.0 mm 0.00 in0.0 mm
05:38 AM 68.2°F20.1°C 64.4°F18.0°C 88% 0.7 mph ESE1.1 kmh ESE 3.1 mph5.0 kmh 29.95 in1014.2 mb 0.00 in0.0 mm 0.00 in0.0 mm 0.00 in0.0 mm
05:37 AM 68.2°F20.1°C 64.4°F18.0°C 88% 0.2 mph ENE0.3 kmh ENE 2.0 mph3.2 kmh 29.94 in1013.9 mb 0.00 in0.0 mm 0.00 in0.0 mm 0.00 in0.0 mm
05:36 AM 68.4°F20.2°C 64.6°F18.1°C 88% 0.2 mph E0.3 kmh E 2.0 mph3.2 kmh 29.94 in1013.9 mb 0.00 in0.0 mm 0.00 in0.0 mm 0.00 in0.0 mm
05:35 AM 68.4°F20.2°C 64.6°F18.1°C 88% 0.4 mph E0.6 kmh E 1.1 mph1.8 kmh 29.94 in1013.9 mb 0.00 in0.0 mm 0.00 in0.0 mm 0.00 in0.0 mm
05:34 AM 68.4°F20.2°C 64.6°F18.1°C 88% 0.9 mph E1.4 kmh E 3.1 mph5.0 kmh 29.94 in1013.9 mb 0.00 in0.0 mm 0.00 in0.0 mm 0.00 in0.0 mm
05:33 AM 68.2°F20.1°C 64.4°F18.0°C 88% 0.7 mph E1.1 kmh E 3.1 mph5.0 kmh 29.94 in1013.9 mb 0.00 in0.0 mm 0.00 in0.0 mm 0.00 in0.0 mm
05:32 AM 68.2°F20.1°C 64.4°F18.0°C 88% 1.1 mph E1.8 kmh E 1.1 mph1.8 kmh 29.94 in1013.9 mb 0.00 in0.0 mm 0.00 in0.0 mm 0.00 in0.0 mm
05:31 AM 68.2°F20.1°C 64.4°F18.0°C 88% 2.0 mph E3.2 kmh E 2.0 mph3.2 kmh 29.94 in1013.9 mb 0.00 in0.0 mm 0.00 in0.0 mm 0.00 in0.0 mm
05:30 AM 68.2°F20.1°C 64.4°F18.0°C 88% 1.1 mph ENE1.8 kmh ENE 4.3 mph6.9 kmh 29.94 in1013.9 mb 0.00 in0.0 mm 0.00 in0.0 mm 0.00 in0.0 mm
05:29 AM 68.2°F20.1°C 64.4°F18.0°C 88% Calm Calm 1.1 mph1.8 kmh 29.94 in1013.9 mb 0.00 in0.0 mm 0.00 in0.0 mm 0.00 in0.0 mm
05:28 AM 68.2°F20.1°C 64.4°F18.0°C 88% 0.2 mph E0.3 kmh E 1.1 mph1.8 kmh 29.95 in1014.2 mb 0.00 in0.0 mm 0.00 in0.0 mm 0.00 in0.0 mm
05:27 AM 68.2°F20.1°C 64.4°F18.0°C 88% 0.2 mph NE0.3 kmh NE 1.1 mph1.8 kmh 29.95 in1014.2 mb 0.00 in0.0 mm 0.00 in0.0 mm 0.00 in0.0 mm
05:26 AM 68.2°F20.1°C 64.8°F18.2°C 89% 0.7 mph NE1.1 kmh NE 1.1 mph1.8 kmh 29.95 in1014.2 mb 0.00 in0.0 mm 0.00 in0.0 mm 0.00 in0.0 mm
05:25 AM 68.0°F20.0°C 64.6°F18.1°C 89% 1.8 mph NNW2.9 kmh NNW 4.3 mph6.9 kmh 29.95 in1014.2 mb 0.00 in0.0 mm 0.00 in0.0 mm 0.00 in0.0 mm
05:24 AM 68.0°F20.0°C 64.6°F18.1°C 89% 1.1 mph NE1.8 kmh NE 4.3 mph6.9 kmh 29.94 in1013.9 mb 0.00 in0.0 mm 0.00 in0.0 mm 0.00 in0.0 mm
05:23 AM 67.8°F19.9°C 64.4°F18.0°C 89% 0.9 mph NE1.4 kmh NE 2.0 mph3.2 kmh 29.95 in1014.2 mb 0.00 in0.0 mm 0.00 in0.0 mm 0.00 in0.0 mm
05:22 AM 67.8°F19.9°C 64.4°F18.0°C 89% 1.6 mph NE2.6 kmh NE 3.1 mph5.0 kmh 29.95 in1014.2 mb 0.00 in0.0 mm 0.00 in0.0 mm 0.00 in0.0 mm
05:21 AM 67.8°F19.9°C 64.4°F18.0°C 89% 0.7 mph ESE1.1 kmh ESE 3.1 mph5.0 kmh 29.95 in1014.2 mb 0.00 in0.0 mm 0.00 in0.0 mm 0.00 in0.0 mm
05:20 AM 67.8°F19.9°C 64.4°F18.0°C 89% 0.4 mph ESE0.6 kmh ESE 2.0 mph3.2 kmh 29.94 in1013.9 mb 0.00 in0.0 mm 0.00 in0.0 mm 0.00 in0.0 mm
05:19 AM 67.6°F19.8°C 64.2°F17.9°C 89% 1.1 mph ENE1.8 kmh ENE 4.3 mph6.9 kmh 29.94 in1013.9 mb 0.00 in0.0 mm 0.00 in0.0 mm 0.00 in0.0 mm
05:18 AM 67.6°F19.8°C 64.2°F17.9°C 89% 0.7 mph NE1.1 kmh NE 4.3 mph6.9 kmh 29.95 in1014.2 mb 0.00 in0.0 mm 0.00 in0.0 mm 0.00 in0.0 mm
05:17 AM 67.6°F19.8°C 64.2°F17.9°C 89% 0.4 mph NE0.6 kmh NE 1.1 mph1.8 kmh 29.95 in1014.2 mb 0.00 in0.0 mm 0.00 in0.0 mm 0.00 in0.0 mm
05:16 AM 67.6°F19.8°C 64.2°F17.9°C 89% 0.4 mph N0.6 kmh N 1.1 mph1.8 kmh 29.94 in1013.9 mb 0.00 in0.0 mm 0.00 in0.0 mm 0.00 in0.0 mm
05:15 AM 67.8°F19.9°C 64.4°F18.0°C 89% Calm Calm 1.1 mph1.8 kmh 29.94 in1013.9 mb 0.00 in0.0 mm 0.00 in0.0 mm 0.00 in0.0 mm
05:14 AM 67.8°F19.9°C 64.4°F18.0°C 89% Calm Calm 1.1 mph1.8 kmh 29.95 in1014.2 mb 0.00 in0.0 mm 0.00 in0.0 mm 0.00 in0.0 mm
05:13 AM 67.8°F19.9°C 64.4°F18.0°C 89% Calm Calm 1.1 mph1.8 kmh 29.95 in1014.2 mb 0.00 in0.0 mm 0.00 in0.0 mm 0.00 in0.0 mm
05:12 AM 67.8°F19.9°C 64.4°F18.0°C 89% Calm Calm 1.1 mph1.8 kmh 29.94 in1013.9 mb 0.00 in0.0 mm 0.00 in0.0 mm 0.00 in0.0 mm
05:11 AM 67.8°F19.9°C 64.4°F18.0°C 89% 0.7 mph NE1.1 kmh NE 2.0 mph3.2 kmh 29.94 in1013.9 mb 0.00 in0.0 mm 0.00 in0.0 mm 0.00 in0.0 mm
05:10 AM 67.6°F19.8°C 64.6°F18.1°C 90% 0.9 mph NE1.4 kmh NE 3.1 mph5.0 kmh 29.95 in1014.2 mb 0.00 in0.0 mm 0.00 in0.0 mm 0.00 in0.0 mm
05:09 AM 67.8°F19.9°C 64.8°F18.2°C 90% 0.7 mph ENE1.1 kmh ENE 2.0 mph3.2 kmh 29.95 in1014.2 mb 0.00 in0.0 mm 0.00 in0.0 mm 0.00 in0.0 mm
05:08 AM 67.8°F19.9°C 64.4°F18.0°C 89% 0.7 mph NE1.1 kmh NE 3.1 mph5.0 kmh 29.95 in1014.2 mb 0.00 in0.0 mm 0.00 in0.0 mm 0.00 in0.0 mm
05:07 AM 67.8°F19.9°C 64.4°F18.0°C 89% 0.2 mph NNW0.3 kmh NNW 1.1 mph1.8 kmh 29.95 in1014.2 mb 0.00 in0.0 mm 0.00 in0.0 mm 0.00 in0.0 mm
05:06 AM 67.8°F19.9°C 64.4°F18.0°C 89% 0.9 mph NNW1.4 kmh NNW 2.0 mph3.2 kmh 29.95 in1014.2 mb 0.00 in0.0 mm 0.00 in0.0 mm 0.00 in0.0 mm
05:05 AM 67.8°F19.9°C 64.4°F18.0°C 89% 1.3 mph NE2.1 kmh NE 3.1 mph5.0 kmh 29.95 in1014.2 mb 0.00 in0.0 mm 0.00 in0.0 mm 0.00 in0.0 mm
05:04 AM 67.8°F19.9°C 64.8°F18.2°C 90% 1.6 mph NE2.6 kmh NE 3.1 mph5.0 kmh 29.95 in1014.2 mb 0.00 in0.0 mm 0.00 in0.0 mm 0.00 in0.0 mm
05:03 AM 67.8°F19.9°C 64.8°F18.2°C 90% 2.2 mph NE3.5 kmh NE 4.3 mph6.9 kmh 29.94 in1013.9 mb 0.00 in0.0 mm 0.00 in0.0 mm 0.00 in0.0 mm
05:02 AM 67.6°F19.8°C 64.6°F18.1°C 90% 2.5 mph NE4.0 kmh NE 4.3 mph6.9 kmh 29.95 in1014.2 mb 0.00 in0.0 mm 0.00 in0.0 mm 0.00 in0.0 mm
05:01 AM 67.6°F19.8°C 64.6°F18.1°C 90% 2.2 mph NE3.5 kmh NE 4.3 mph6.9 kmh 29.94 in1013.9 mb 0.00 in0.0 mm 0.00 in0.0 mm 0.00 in0.0 mm
05:00 AM 67.6°F19.8°C 64.6°F18.1°C 90% 2.2 mph ENE3.5 kmh ENE 6.3 mph10.1 kmh 29.94 in1013.9 mb 0.00 in0.0 mm 0.00 in0.0 mm 0.00 in0.0 mm
04:59 AM 67.6°F19.8°C 64.6°F18.1°C 90% 2.0 mph NNE3.2 kmh NNE 6.3 mph10.1 kmh 29.95 in1014.2 mb 0.00 in0.0 mm 0.00 in0.0 mm 0.00 in0.0 mm
04:58 AM 67.6°F19.8°C 64.6°F18.1°C 90% 2.0 mph E3.2 kmh E 4.3 mph6.9 kmh 29.95 in1014.2 mb 0.00 in0.0 mm 0.00 in0.0 mm 0.00 in0.0 mm
04:57 AM 67.6°F19.8°C 64.6°F18.1°C 90% 1.6 mph NE2.6 kmh NE 4.3 mph6.9 kmh 29.95 in1014.2 mb 0.00 in0.0 mm 0.00 in0.0 mm 0.00 in0.0 mm
04:56 AM 67.6°F19.8°C 64.6°F18.1°C 90% 0.7 mph NE1.1 kmh NE 3.1 mph5.0 kmh 29.95 in1014.2 mb 0.00 in0.0 mm 0.00 in0.0 mm 0.00 in0.0 mm
04:55 AM 67.6°F19.8°C 64.6°F18.1°C 90% 1.3 mph NE2.1 kmh NE 2.0 mph3.2 kmh 29.95 in1014.2 mb 0.00 in0.0 mm 0.00 in0.0 mm 0.00 in0.0 mm
04:54 AM 67.6°F19.8°C 64.6°F18.1°C 90% 1.6 mph NNE2.6 kmh NNE 3.1 mph5.0 kmh 29.95 in1014.2 mb 0.00 in0.0 mm 0.00 in0.0 mm 0.00 in0.0 mm
04:53 AM 67.6°F19.8°C 64.6°F18.1°C 90% 1.6 mph NNE2.6 kmh NNE 3.1 mph5.0 kmh 29.95 in1014.2 mb 0.00 in0.0 mm 0.00 in0.0 mm 0.00 in0.0 mm
04:52 AM 67.6°F19.8°C 64.6°F18.1°C 90% 1.6 mph NE2.6 kmh NE 4.3 mph6.9 kmh 29.95 in1014.2 mb 0.00 in0.0 mm 0.00 in0.0 mm 0.00 in0.0 mm
04:51 AM 67.6°F19.8°C 64.6°F18.1°C 90% 1.6 mph ENE2.6 kmh ENE 4.3 mph6.9 kmh 29.95 in1014.2 mb 0.00 in0.0 mm 0.00 in0.0 mm 0.00 in0.0 mm
04:50 AM 67.6°F19.8°C 64.6°F18.1°C 90% 1.3 mph NNE2.1 kmh NNE 3.1 mph5.0 kmh 29.95 in1014.2 mb 0.00 in0.0 mm 0.00 in0.0 mm 0.00 in0.0 mm
04:49 AM 67.6°F19.8°C 64.6°F18.1°C 90% 1.3 mph NE2.1 kmh NE 4.3 mph6.9 kmh 29.95 in1014.2 mb 0.00 in0.0 mm 0.00 in0.0 mm 0.00 in0.0 mm
04:48 AM 67.6°F19.8°C 64.6°F18.1°C 90% 1.3 mph NE2.1 kmh NE 2.0 mph3.2 kmh 29.94 in1013.9 mb 0.00 in0.0 mm 0.00 in0.0 mm 0.00 in0.0 mm
04:47 AM 67.6°F19.8°C 64.6°F18.1°C 90% 0.7 mph ENE1.1 kmh ENE 2.0 mph3.2 kmh 29.94 in1013.9 mb 0.00 in0.0 mm 0.00 in0.0 mm 0.00 in0.0 mm
04:46 AM 67.6°F19.8°C 64.2°F17.9°C 89% Calm Calm 1.1 mph1.8 kmh 29.94 in1013.9 mb 0.00 in0.0 mm 0.00 in0.0 mm 0.00 in0.0 mm
04:45 AM 67.6°F19.8°C 64.2°F17.9°C 89% 0.2 mph NE0.3 kmh NE -- 29.94 in1013.9 mb 0.00 in0.0 mm 0.00 in0.0 mm 0.00 in0.0 mm
04:44 AM 67.6°F19.8°C 64.2°F17.9°C 89% 0.9 mph NE1.4 kmh NE 2.0 mph3.2 kmh 29.94 in1013.9 mb 0.00 in0.0 mm 0.00 in0.0 mm 0.00 in0.0 mm
04:43 AM 67.6°F19.8°C 64.2°F17.9°C 89% 0.7 mph NE1.1 kmh NE 2.0 mph3.2 kmh 29.94 in1013.9 mb 0.00 in0.0 mm 0.00 in0.0 mm 0.00 in0.0 mm
04:42 AM 67.6°F19.8°C 64.2°F17.9°C 89% Calm Calm 1.1 mph1.8 kmh 29.95 in1014.2 mb 0.00 in0.0 mm 0.00 in0.0 mm 0.00 in0.0 mm
04:41 AM 67.8°F19.9°C 64.4°F18.0°C 89% 0.2 mph ENE0.3 kmh ENE 1.1 mph1.8 kmh 29.95 in1014.2 mb 0.00 in0.0 mm 0.00 in0.0 mm 0.00 in0.0 mm
04:40 AM 67.8°F19.9°C 64.4°F18.0°C 89% 0.2 mph NNE0.3 kmh NNE 1.1 mph1.8 kmh 29.94 in1013.9 mb 0.00 in0.0 mm 0.00 in0.0 mm 0.00 in0.0 mm
04:39 AM 67.8°F19.9°C 64.4°F18.0°C 89% Calm Calm 1.1 mph1.8 kmh 29.94 in1013.9 mb 0.00 in0.0 mm 0.00 in0.0 mm 0.00 in0.0 mm
04:38 AM 67.8°F19.9°C 64.4°F18.0°C 89% Calm Calm -- 29.94 in1013.9 mb 0.00 in0.0 mm 0.00 in0.0 mm 0.00 in0.0 mm
04:37 AM 67.8°F19.9°C 64.4°F18.0°C 89% 0.4 mph NNE0.6 kmh NNE 2.0 mph3.2 kmh 29.94 in1013.9 mb 0.00 in0.0 mm 0.00 in0.0 mm 0.00 in0.0 mm
04:36 AM 67.8°F19.9°C 64.4°F18.0°C 89% 1.1 mph NE1.8 kmh NE 2.0 mph3.2 kmh 29.94 in1013.9 mb 0.00 in0.0 mm 0.00 in0.0 mm 0.00 in0.0 mm
04:35 AM 67.6°F19.8°C 64.2°F17.9°C 89% 1.8 mph N2.9 kmh N 3.1 mph5.0 kmh 29.94 in1013.9 mb 0.00 in0.0 mm 0.00 in0.0 mm 0.00 in0.0 mm
04:34 AM 67.6°F19.8°C 64.2°F17.9°C 89% 1.3 mph NE2.1 kmh NE 3.1 mph5.0 kmh 29.94 in1013.9 mb 0.00 in0.0 mm 0.00 in0.0 mm 0.00 in0.0 mm
04:33 AM 67.6°F19.8°C 64.2°F17.9°C 89% 1.3 mph ENE2.1 kmh ENE 3.1 mph5.0 kmh 29.95 in1014.2 mb 0.00 in0.0 mm 0.00 in0.0 mm 0.00 in0.0 mm
04:32 AM 67.6°F19.8°C 64.2°F17.9°C 89% 1.8 mph E2.9 kmh E 5.4 mph8.7 kmh 29.94 in1013.9 mb 0.00 in0.0 mm 0.00 in0.0 mm 0.00 in0.0 mm
04:31 AM 67.6°F19.8°C 64.2°F17.9°C 89% 1.6 mph E2.6 kmh E 3.1 mph5.0 kmh 29.94 in1013.9 mb 0.00 in0.0 mm 0.00 in0.0 mm 0.00 in0.0 mm
04:30 AM 67.6°F19.8°C 64.6°F18.1°C 90% 1.6 mph NE2.6 kmh NE 3.1 mph5.0 kmh 29.95 in1014.2 mb 0.00 in0.0 mm 0.00 in0.0 mm 0.00 in0.0 mm
04:29 AM 67.6°F19.8°C 64.6°F18.1°C 90% 1.8 mph NE2.9 kmh NE 3.1 mph5.0 kmh 29.94 in1013.9 mb 0.00 in0.0 mm 0.00 in0.0 mm 0.00 in0.0 mm
04:28 AM 67.6°F19.8°C 64.6°F18.1°C 90% 2.7 mph NNE4.3 kmh NNE 4.3 mph6.9 kmh 29.94 in1013.9 mb 0.00 in0.0 mm 0.00 in0.0 mm 0.00 in0.0 mm
04:27 AM 67.5°F19.7°C 64.4°F18.0°C 90% 2.0 mph NNE3.2 kmh NNE 4.3 mph6.9 kmh 29.95 in1014.2 mb 0.00 in0.0 mm 0.00 in0.0 mm 0.00 in0.0 mm
04:26 AM 67.5°F19.7°C 64.4°F18.0°C 90% 1.6 mph NE2.6 kmh NE 3.1 mph5.0 kmh 29.95 in1014.2 mb 0.00 in0.0 mm 0.00 in0.0 mm 0.00 in0.0 mm
04:25 AM 67.5°F19.7°C 64.4°F18.0°C 90% 1.6 mph NE2.6 kmh NE 3.1 mph5.0 kmh 29.95 in1014.2 mb 0.00 in0.0 mm 0.00 in0.0 mm 0.00 in0.0 mm
04:24 AM 67.5°F19.7°C 64.4°F18.0°C 90% 1.3 mph N2.1 kmh N 3.1 mph5.0 kmh 29.94 in1013.9 mb 0.00 in0.0 mm 0.00 in0.0 mm 0.00 in0.0 mm
04:23 AM 67.5°F19.7°C 64.4°F18.0°C 90% 1.3 mph E2.1 kmh E 3.1 mph5.0 kmh 29.95 in1014.2 mb 0.00 in0.0 mm 0.00 in0.0 mm 0.00 in0.0 mm
04:22 AM 67.5°F19.7°C 64.4°F18.0°C 90% 1.6 mph NE2.6 kmh NE 3.1 mph5.0 kmh 29.94 in1013.9 mb 0.00 in0.0 mm 0.00 in0.0 mm 0.00 in0.0 mm
04:21 AM 67.3°F19.6°C 64.2°F17.9°C 90% 1.6 mph NNE2.6 kmh NNE 3.1 mph5.0 kmh 29.94 in1013.9 mb 0.00 in0.0 mm 0.00 in0.0 mm 0.00 in0.0 mm
04:20 AM 67.3°F19.6°C 64.2°F17.9°C 90% 1.1 mph NE1.8 kmh NE 3.1 mph5.0 kmh 29.94 in1013.9 mb 0.00 in0.0 mm 0.00 in0.0 mm 0.00 in0.0 mm
04:19 AM 67.3°F19.6°C 64.2°F17.9°C 90% 1.1 mph N1.8 kmh N 4.3 mph6.9 kmh 29.94 in1013.9 mb 0.00 in0.0 mm 0.00 in0.0 mm 0.00 in0.0 mm
04:18 AM 67.3°F19.6°C 64.2°F17.9°C 90% 0.7 mph NE1.1 kmh NE 4.3 mph6.9 kmh 29.94 in1013.9 mb 0.00 in0.0 mm 0.00 in0.0 mm 0.00 in0.0 mm
04:17 AM 67.3°F19.6°C 64.2°F17.9°C 90% 0.2 mph ENE0.3 kmh ENE 1.1 mph1.8 kmh 29.94 in1013.9 mb 0.00 in0.0 mm 0.00 in0.0 mm 0.00 in0.0 mm
04:16 AM 67.3°F19.6°C 64.2°F17.9°C 90% 0.4 mph ENE0.6 kmh ENE 2.0 mph3.2 kmh 29.94 in1013.9 mb 0.00 in0.0 mm 0.00 in0.0 mm 0.00 in0.0 mm
04:15 AM 67.3°F19.6°C 64.2°F17.9°C 90% 0.2 mph N0.3 kmh N 2.0 mph3.2 kmh 29.94 in1013.9 mb 0.00 in0.0 mm 0.00 in0.0 mm 0.00 in0.0 mm
04:14 AM 67.3°F19.6°C 64.2°F17.9°C 90% Calm Calm 1.1 mph1.8 kmh 29.93 in1013.5 mb 0.00 in0.0 mm 0.00 in0.0 mm 0.00 in0.0 mm
04:13 AM 67.3°F19.6°C 63.9°F17.7°C 89% 0.2 mph N0.3 kmh N 1.1 mph1.8 kmh 29.93 in1013.5 mb 0.00 in0.0 mm 0.00 in0.0 mm 0.00 in0.0 mm
04:12 AM 67.3°F19.6°C 63.9°F17.7°C 89% 0.4 mph N0.6 kmh N 1.1 mph1.8 kmh 29.93 in1013.5 mb 0.00 in0.0 mm 0.00 in0.0 mm 0.00 in0.0 mm
04:11 AM 67.5°F19.7°C 64.0°F17.8°C 89% 0.4 mph N0.6 kmh N 2.0 mph3.2 kmh 29.93 in1013.5 mb 0.00 in0.0 mm 0.00 in0.0 mm 0.00 in0.0 mm
04:10 AM 67.5°F19.7°C 64.0°F17.8°C 89% 0.7 mph E1.1 kmh E 2.0 mph3.2 kmh 29.93 in1013.5 mb 0.00 in0.0 mm 0.00 in0.0 mm 0.00 in0.0 mm
04:09 AM 67.5°F19.7°C 64.0°F17.8°C 89% 1.1 mph NE1.8 kmh NE 2.0 mph3.2 kmh 29.94 in1013.9 mb 0.00 in0.0 mm 0.00 in0.0 mm 0.00 in0.0 mm
04:08 AM 67.5°F19.7°C 64.0°F17.8°C 89% 2.5 mph NE4.0 kmh NE 4.3 mph6.9 kmh 29.94 in1013.9 mb 0.00 in0.0 mm 0.00 in0.0 mm 0.00 in0.0 mm
04:07 AM 67.5°F19.7°C 64.0°F17.8°C 89% 2.5 mph N4.0 kmh N 5.4 mph8.7 kmh 29.93 in1013.5 mb 0.00 in0.0 mm 0.00 in0.0 mm 0.00 in0.0 mm
04:06 AM 67.5°F19.7°C 64.0°F17.8°C 89% 1.8 mph NE2.9 kmh NE 3.1 mph5.0 kmh 29.93 in1013.5 mb 0.00 in0.0 mm 0.00 in0.0 mm 0.00 in0.0 mm
04:05 AM 67.5°F19.7°C 64.0°F17.8°C 89% 1.8 mph N2.9 kmh N 4.3 mph6.9 kmh 29.93 in1013.5 mb 0.00 in0.0 mm 0.00 in0.0 mm 0.00 in0.0 mm
04:04 AM 67.5°F19.7°C 64.0°F17.8°C 89% 1.8 mph ENE2.9 kmh ENE 4.3 mph6.9 kmh 29.93 in1013.5 mb 0.00 in0.0 mm 0.00 in0.0 mm 0.00 in0.0 mm
04:03 AM 67.5°F19.7°C 64.0°F17.8°C 89% 2.7 mph NNE4.3 kmh NNE 4.3 mph6.9 kmh 29.93 in1013.5 mb 0.00 in0.0 mm 0.00 in0.0 mm 0.00 in0.0 mm
04:02 AM 67.5°F19.7°C 64.0°F17.8°C 89% 2.5 mph NE4.0 kmh NE 5.4 mph8.7 kmh 29.94 in1013.9 mb 0.00 in0.0 mm 0.00 in0.0 mm 0.00 in0.0 mm
04:00 AM 67.5°F19.7°C 64.0°F17.8°C 89% 2.0 mph NNE3.2 kmh NNE 4.3 mph6.9 kmh 29.94 in1013.9 mb 0.00 in0.0 mm 0.00 in0.0 mm 0.00 in0.0 mm
03:59 AM 67.5°F19.7°C 64.0°F17.8°C 89% 2.2 mph ENE3.5 kmh ENE 4.3 mph6.9 kmh 29.94 in1013.9 mb 0.00 in0.0 mm 0.00 in0.0 mm 0.00 in0.0 mm
03:58 AM 67.5°F19.7°C 64.0°F17.8°C 89% 2.2 mph NE3.5 kmh NE 3.1 mph5.0 kmh 29.94 in1013.9 mb 0.00 in0.0 mm 0.00 in0.0 mm 0.00 in0.0 mm
03:57 AM 67.5°F19.7°C 64.0°F17.8°C 89% 1.8 mph E2.9 kmh E 3.1 mph5.0 kmh 29.93 in1013.5 mb 0.00 in0.0 mm 0.00 in0.0 mm 0.00 in0.0 mm
03:56 AM 67.5°F19.7°C 64.0°F17.8°C 89% 1.8 mph NE2.9 kmh NE 2.0 mph3.2 kmh 29.94 in1013.9 mb 0.00 in0.0 mm 0.00 in0.0 mm 0.00 in0.0 mm
03:55 AM 67.5°F19.7°C 64.0°F17.8°C 89% 2.0 mph NE3.2 kmh NE 3.1 mph5.0 kmh 29.93 in1013.5 mb 0.00 in0.0 mm 0.00 in0.0 mm 0.00 in0.0 mm
03:54 AM 67.5°F19.7°C 64.0°F17.8°C 89% 2.9 mph ENE4.7 kmh ENE 5.4 mph8.7 kmh 29.93 in1013.5 mb 0.00 in0.0 mm 0.00 in0.0 mm 0.00 in0.0 mm
03:53 AM 67.5°F19.7°C 64.0°F17.8°C 89% 3.4 mph NE5.5 kmh NE 5.4 mph8.7 kmh 29.93 in1013.5 mb 0.00 in0.0 mm 0.00 in0.0 mm 0.00 in0.0 mm
03:52 AM 67.5°F19.7°C 64.0°F17.8°C 89% 3.4 mph NE5.5 kmh NE 5.4 mph8.7 kmh 29.93 in1013.5 mb 0.00 in0.0 mm 0.00 in0.0 mm 0.00 in0.0 mm
03:51 AM 67.5°F19.7°C 64.0°F17.8°C 89% 3.4 mph NNE5.5 kmh NNE 5.4 mph8.7 kmh 29.93 in1013.5 mb 0.00 in0.0 mm 0.00 in0.0 mm 0.00 in0.0 mm
03:50 AM 67.5°F19.7°C 64.0°F17.8°C 89% 3.1 mph ENE5.0 kmh ENE 5.4 mph8.7 kmh 29.93 in1013.5 mb 0.00 in0.0 mm 0.00 in0.0 mm 0.00 in0.0 mm
03:49 AM 67.5°F19.7°C 64.0°F17.8°C 89% 3.6 mph N5.8 kmh N 5.4 mph8.7 kmh 29.93 in1013.5 mb 0.00 in0.0 mm 0.00 in0.0 mm 0.00 in0.0 mm
03:48 AM 67.3°F19.6°C 63.9°F17.7°C 89% 4.0 mph NE6.4 kmh NE 6.3 mph10.1 kmh 29.94 in1013.9 mb 0.00 in0.0 mm 0.00 in0.0 mm 0.00 in0.0 mm
03:47 AM 67.3°F19.6°C 63.9°F17.7°C 89% 2.9 mph NE4.7 kmh NE 6.3 mph10.1 kmh 29.94 in1013.9 mb 0.00 in0.0 mm 0.00 in0.0 mm 0.00 in0.0 mm
03:46 AM 67.3°F19.6°C 63.9°F17.7°C 89% 2.2 mph N3.5 kmh N 4.3 mph6.9 kmh 29.94 in1013.9 mb 0.00 in0.0 mm 0.00 in0.0 mm 0.00 in0.0 mm
03:45 AM 67.3°F19.6°C 63.9°F17.7°C 89% 2.5 mph NE4.0 kmh NE 4.3 mph6.9 kmh 29.93 in1013.5 mb 0.00 in0.0 mm 0.00 in0.0 mm 0.00 in0.0 mm
03:44 AM 67.3°F19.6°C 63.9°F17.7°C 89% 2.9 mph NE4.7 kmh NE 4.3 mph6.9 kmh 29.94 in1013.9 mb 0.00 in0.0 mm 0.00 in0.0 mm 0.00 in0.0 mm
03:43 AM 67.3°F19.6°C 63.9°F17.7°C 89% 2.9 mph NE4.7 kmh NE 5.4 mph8.7 kmh 29.93 in1013.5 mb 0.00 in0.0 mm 0.00 in0.0 mm 0.00 in0.0 mm
03:42 AM 67.3°F19.6°C 63.9°F17.7°C 89% 2.5 mph NE4.0 kmh NE 4.3 mph6.9 kmh 29.93 in1013.5 mb 0.00 in0.0 mm 0.00 in0.0 mm 0.00 in0.0 mm
03:41 AM 67.3°F19.6°C 63.9°F17.7°C 89% 2.0 mph ENE3.2 kmh ENE 5.4 mph8.7 kmh 29.94 in1013.9 mb 0.00 in0.0 mm 0.00 in0.0 mm 0.00 in0.0 mm
03:40 AM 67.3°F19.6°C 63.9°F17.7°C 89% 1.6 mph NE2.6 kmh NE 3.1 mph5.0 kmh 29.93 in1013.5 mb 0.00 in0.0 mm 0.00 in0.0 mm 0.00 in0.0 mm
03:39 AM 67.3°F19.6°C 63.9°F17.7°C 89% 1.3 mph ENE2.1 kmh ENE 3.1 mph5.0 kmh 29.93 in1013.5 mb 0.00 in0.0 mm 0.00 in0.0 mm 0.00 in0.0 mm
03:38 AM 67.3°F19.6°C 63.9°F17.7°C 89% 2.0 mph N3.2 kmh N 4.3 mph6.9 kmh 29.94 in1013.9 mb 0.00 in0.0 mm 0.00 in0.0 mm 0.00 in0.0 mm
03:37 AM 67.3°F19.6°C 63.9°F17.7°C 89% 2.5 mph N4.0 kmh N 5.4 mph8.7 kmh 29.94 in1013.9 mb 0.00 in0.0 mm 0.00 in0.0 mm 0.00 in0.0 mm
03:36 AM 67.3°F19.6°C 63.9°F17.7°C 89% 2.9 mph NE4.7 kmh NE 5.4 mph8.7 kmh 29.94 in1013.9 mb 0.00 in0.0 mm 0.00 in0.0 mm 0.00 in0.0 mm
03:35 AM 67.3°F19.6°C 63.9°F17.7°C 89% 2.9 mph NNE4.7 kmh NNE 6.3 mph10.1 kmh 29.94 in1013.9 mb 0.00 in0.0 mm 0.00 in0.0 mm 0.00 in0.0 mm
03:34 AM 67.3°F19.6°C 63.9°F17.7°C 89% 2.7 mph N4.3 kmh N 6.3 mph10.1 kmh 29.94 in1013.9 mb 0.00 in0.0 mm 0.00 in0.0 mm 0.00 in0.0 mm
03:33 AM 67.3°F19.6°C 63.9°F17.7°C 89% 2.2 mph E3.5 kmh E 3.1 mph5.0 kmh 29.94 in1013.9 mb 0.00 in0.0 mm 0.00 in0.0 mm 0.00 in0.0 mm
03:32 AM 67.3°F19.6°C 63.9°F17.7°C 89% 2.5 mph ENE4.0 kmh ENE 6.3 mph10.1 kmh 29.94 in1013.9 mb 0.00 in0.0 mm 0.00 in0.0 mm 0.00 in0.0 mm
03:31 AM 67.3°F19.6°C 63.9°F17.7°C 89% 2.5 mph NNE4.0 kmh NNE 6.3 mph10.1 kmh 29.93 in1013.5 mb 0.00 in0.0 mm 0.00 in0.0 mm 0.00 in0.0 mm
03:30 AM 67.3°F19.6°C 63.9°F17.7°C 89% 1.8 mph NE2.9 kmh NE 4.3 mph6.9 kmh 29.93 in1013.5 mb 0.00 in0.0 mm 0.00 in0.0 mm 0.00 in0.0 mm
03:29 AM 67.3°F19.6°C 63.9°F17.7°C 89% 1.8 mph E2.9 kmh E 4.3 mph6.9 kmh 29.93 in1013.5 mb 0.00 in0.0 mm 0.00 in0.0 mm 0.00 in0.0 mm
03:28 AM 67.3°F19.6°C 63.9°F17.7°C 89% 2.5 mph NNE4.0 kmh NNE 4.3 mph6.9 kmh 29.93 in1013.5 mb 0.00 in0.0 mm 0.00 in0.0 mm 0.00 in0.0 mm
03:27 AM 67.3°F19.6°C 63.9°F17.7°C 89% 2.9 mph ENE4.7 kmh ENE 6.3 mph10.1 kmh 29.94 in1013.9 mb 0.00 in0.0 mm 0.00 in0.0 mm 0.00 in0.0 mm
03:26 AM 67.3°F19.6°C 63.9°F17.7°C 89% 2.9 mph ENE4.7 kmh ENE 6.3 mph10.1 kmh 29.94 in1013.9 mb 0.00 in0.0 mm 0.00 in0.0 mm 0.00 in0.0 mm
03:25 AM 67.3°F19.6°C 63.9°F17.7°C 89% 2.9 mph E4.7 kmh E 5.4 mph8.7 kmh 29.93 in1013.5 mb 0.00 in0.0 mm 0.00 in0.0 mm 0.00 in0.0 mm
03:24 AM 67.3°F19.6°C 63.9°F17.7°C 89% 3.1 mph NNE5.0 kmh NNE 5.4 mph8.7 kmh 29.93 in1013.5 mb 0.00 in0.0 mm 0.00 in0.0 mm 0.00 in0.0 mm
03:23 AM 67.3°F19.6°C 63.9°F17.7°C 89% 2.9 mph NE4.7 kmh NE 5.4 mph8.7 kmh 29.93 in1013.5 mb 0.00 in0.0 mm 0.00 in0.0 mm 0.00 in0.0 mm
03:22 AM 67.3°F19.6°C 63.9°F17.7°C 89% 2.7 mph NE4.3 kmh NE 4.3 mph6.9 kmh 29.93 in1013.5 mb 0.00 in0.0 mm 0.00 in0.0 mm 0.00 in0.0 mm
03:21 AM 67.3°F19.6°C 63.9°F17.7°C 89% 2.2 mph E3.5 kmh E 5.4 mph8.7 kmh 29.93 in1013.5 mb 0.00 in0.0 mm 0.00 in0.0 mm 0.00 in0.0 mm
03:20 AM 67.3°F19.6°C 63.9°F17.7°C 89% 2.0 mph NE3.2 kmh NE 3.1 mph5.0 kmh 29.93 in1013.5 mb 0.00 in0.0 mm 0.00 in0.0 mm 0.00 in0.0 mm
03:19 AM 67.3°F19.6°C 63.9°F17.7°C 89% 2.2 mph NE3.5 kmh NE 3.1 mph5.0 kmh 29.93 in1013.5 mb 0.00 in0.0 mm 0.00 in0.0 mm 0.00 in0.0 mm
03:18 AM 67.3°F19.6°C 63.9°F17.7°C 89% 1.6 mph NE2.6 kmh NE 3.1 mph5.0 kmh 29.93 in1013.5 mb 0.00 in0.0 mm 0.00 in0.0 mm 0.00 in0.0 mm
03:17 AM 67.3°F19.6°C 63.9°F17.7°C 89% 2.0 mph NNE3.2 kmh NNE 3.1 mph5.0 kmh 29.93 in1013.5 mb 0.00 in0.0 mm 0.00 in0.0 mm 0.00 in0.0 mm
03:16 AM 67.3°F19.6°C 63.9°F17.7°C 89% 2.9 mph NE4.7 kmh NE 4.3 mph6.9 kmh 29.93 in1013.5 mb 0.00 in0.0 mm 0.00 in0.0 mm 0.00 in0.0 mm
03:15 AM 67.3°F19.6°C 63.9°F17.7°C 89% 2.5 mph ENE4.0 kmh ENE 6.3 mph10.1 kmh 29.94 in1013.9 mb 0.00 in0.0 mm 0.00 in0.0 mm 0.00 in0.0 mm
03:14 AM 67.3°F19.6°C 63.9°F17.7°C 89% 2.7 mph NE4.3 kmh NE 6.3 mph10.1 kmh 29.94 in1013.9 mb 0.00 in0.0 mm 0.00 in0.0 mm 0.00 in0.0 mm
03:13 AM 67.3°F19.6°C 63.9°F17.7°C 89% 2.5 mph NE4.0 kmh NE 5.4 mph8.7 kmh 29.94 in1013.9 mb 0.00 in0.0 mm 0.00 in0.0 mm 0.00 in0.0 mm
03:12 AM 67.3°F19.6°C 63.9°F17.7°C 89% 2.2 mph NNE3.5 kmh NNE 5.4 mph8.7 kmh 29.94 in1013.9 mb 0.00 in0.0 mm 0.00 in0.0 mm 0.00 in0.0 mm
03:11 AM 67.3°F19.6°C 63.9°F17.7°C 89% 1.8 mph NE2.9 kmh NE 4.3 mph6.9 kmh 29.94 in1013.9 mb 0.00 in0.0 mm 0.00 in0.0 mm 0.00 in0.0 mm
03:10 AM 67.3°F19.6°C 63.9°F17.7°C 89% 1.8 mph NE2.9 kmh NE 3.1 mph5.0 kmh 29.93 in1013.5 mb 0.00 in0.0 mm 0.00 in0.0 mm 0.00 in0.0 mm
03:09 AM 67.3°F19.6°C 63.9°F17.7°C 89% 2.0 mph NNE3.2 kmh NNE 5.4 mph8.7 kmh 29.93 in1013.5 mb 0.00 in0.0 mm 0.00 in0.0 mm 0.00 in0.0 mm
03:08 AM 67.3°F19.6°C 63.9°F17.7°C 89% 1.8 mph NE2.9 kmh NE 4.3 mph6.9 kmh 29.93 in1013.5 mb 0.00 in0.0 mm 0.00 in0.0 mm 0.00 in0.0 mm
03:07 AM 67.3°F19.6°C 63.9°F17.7°C 89% 1.6 mph NE2.6 kmh NE 3.1 mph5.0 kmh 29.93 in1013.5 mb 0.00 in0.0 mm 0.00 in0.0 mm 0.00 in0.0 mm
03:06 AM 67.3°F19.6°C 63.9°F17.7°C 89% 1.1 mph N1.8 kmh N 3.1 mph5.0 kmh 29.93 in1013.5 mb 0.00 in0.0 mm 0.00 in0.0 mm 0.00 in0.0 mm
03:05 AM 67.3°F19.6°C 63.9°F17.7°C 89% 0.9 mph E1.4 kmh E 2.0 mph3.2 kmh 29.93 in1013.5 mb 0.00 in0.0 mm 0.00 in0.0 mm 0.00 in0.0 mm
03:04 AM 67.3°F19.6°C 63.7°F17.6°C 88% 2.0 mph NE3.2 kmh NE 3.1 mph5.0 kmh 29.93 in1013.5 mb 0.00 in0.0 mm 0.00 in0.0 mm 0.00 in0.0 mm
03:03 AM 67.5°F19.7°C 63.9°F17.7°C 88% 2.7 mph NE4.3 kmh NE 5.4 mph8.7 kmh 29.93 in1013.5 mb 0.00 in0.0 mm 0.00 in0.0 mm 0.00 in0.0 mm
03:02 AM 67.5°F19.7°C 63.9°F17.7°C 88% 2.7 mph NE4.3 kmh NE 4.3 mph6.9 kmh 29.93 in1013.5 mb 0.00 in0.0 mm 0.00 in0.0 mm 0.00 in0.0 mm
03:01 AM 67.5°F19.7°C 63.9°F17.7°C 88% 2.2 mph NE3.5 kmh NE 4.3 mph6.9 kmh 29.93 in1013.5 mb 0.00 in0.0 mm 0.00 in0.0 mm 0.00 in0.0 mm
03:00 AM 67.5°F19.7°C 63.9°F17.7°C 88% 1.6 mph NE2.6 kmh NE 4.3 mph6.9 kmh 29.93 in1013.5 mb 0.00 in0.0 mm 0.00 in0.0 mm 0.00 in0.0 mm
02:59 AM 67.5°F19.7°C 63.9°F17.7°C 88% 1.3 mph NE2.1 kmh NE 4.3 mph6.9 kmh 29.93 in1013.5 mb 0.00 in0.0 mm 0.00 in0.0 mm 0.00 in0.0 mm
02:58 AM 67.5°F19.7°C 63.9°F17.7°C 88% 1.1 mph ENE1.8 kmh ENE 4.3 mph6.9 kmh 29.93 in1013.5 mb 0.00 in0.0 mm 0.00 in0.0 mm 0.00 in0.0 mm
02:57 AM 67.5°F19.7°C 63.9°F17.7°C 88% 0.9 mph N1.4 kmh N 2.0 mph3.2 kmh 29.93 in1013.5 mb 0.00 in0.0 mm 0.00 in0.0 mm 0.00 in0.0 mm
02:56 AM 67.5°F19.7°C 63.9°F17.7°C 88% 0.7 mph NE1.1 kmh NE 2.0 mph3.2 kmh 29.93 in1013.5 mb 0.00 in0.0 mm 0.00 in0.0 mm 0.00 in0.0 mm
02:55 AM 67.6°F19.8°C 64.0°F17.8°C 88% 1.3 mph NE2.1 kmh NE 2.0 mph3.2 kmh 29.93 in1013.5 mb 0.00 in0.0 mm 0.00 in0.0 mm 0.00 in0.0 mm
02:54 AM 67.6°F19.8°C 64.0°F17.8°C 88% 2.2 mph NNE3.5 kmh NNE 4.3 mph6.9 kmh 29.93 in1013.5 mb 0.00 in0.0 mm 0.00 in0.0 mm 0.00 in0.0 mm
02:53 AM 67.6°F19.8°C 64.0°F17.8°C 88% 1.8 mph NE2.9 kmh NE 4.3 mph6.9 kmh 29.93 in1013.5 mb 0.00 in0.0 mm 0.00 in0.0 mm 0.00 in0.0 mm
02:52 AM 67.6°F19.8°C 64.0°F17.8°C 88% 1.3 mph NNE2.1 kmh NNE 3.1 mph5.0 kmh 29.93 in1013.5 mb 0.00 in0.0 mm 0.00 in0.0 mm 0.00 in0.0 mm
02:51 AM 67.6°F19.8°C 64.0°F17.8°C 88% 1.3 mph NE2.1 kmh NE 3.1 mph5.0 kmh 29.93 in1013.5 mb 0.00 in0.0 mm 0.00 in0.0 mm 0.00 in0.0 mm
02:50 AM 67.6°F19.8°C 64.0°F17.8°C 88% 1.1 mph NE1.8 kmh NE 3.1 mph5.0 kmh 29.93 in1013.5 mb 0.00 in0.0 mm 0.00 in0.0 mm 0.00 in0.0 mm
02:49 AM 67.6°F19.8°C 64.0°F17.8°C 88% 1.3 mph ENE2.1 kmh ENE 3.1 mph5.0 kmh 29.93 in1013.5 mb 0.00 in0.0 mm 0.00 in0.0 mm 0.00 in0.0 mm
02:48 AM 67.6°F19.8°C 64.0°F17.8°C 88% 2.0 mph NE3.2 kmh NE 4.3 mph6.9 kmh 29.93 in1013.5 mb 0.00 in0.0 mm 0.00 in0.0 mm 0.00 in0.0 mm
02:47 AM 67.6°F19.8°C 64.0°F17.8°C 88% 1.8 mph ENE2.9 kmh ENE 4.3 mph6.9 kmh 29.93 in1013.5 mb 0.00 in0.0 mm 0.00 in0.0 mm 0.00 in0.0 mm
02:46 AM 67.6°F19.8°C 64.0°F17.8°C 88% 1.6 mph N2.6 kmh N 3.1 mph5.0 kmh 29.93 in1013.5 mb 0.00 in0.0 mm 0.00 in0.0 mm 0.00 in0.0 mm
02:45 AM 67.6°F19.8°C 64.0°F17.8°C 88% 1.1 mph NE1.8 kmh NE 3.1 mph5.0 kmh 29.93 in1013.5 mb 0.00 in0.0 mm 0.00 in0.0 mm 0.00 in0.0 mm
02:44 AM 67.6°F19.8°C 64.0°F17.8°C 88% 1.3 mph E2.1 kmh E 3.1 mph5.0 kmh 29.93 in1013.5 mb 0.00 in0.0 mm 0.00 in0.0 mm 0.00 in0.0 mm
02:43 AM 67.6°F19.8°C 64.0°F17.8°C 88% 1.6 mph N2.6 kmh N 4.3 mph6.9 kmh 29.93 in1013.5 mb 0.00 in0.0 mm 0.00 in0.0 mm 0.00 in0.0 mm
02:42 AM 67.8°F19.9°C 64.2°F17.9°C 88% 1.1 mph NE1.8 kmh NE 4.3 mph6.9 kmh 29.93 in1013.5 mb 0.00 in0.0 mm 0.00 in0.0 mm 0.00 in0.0 mm
02:41 AM 67.8°F19.9°C 64.2°F17.9°C 88% 1.3 mph NNE2.1 kmh NNE 3.1 mph5.0 kmh 29.93 in1013.5 mb 0.00 in0.0 mm 0.00 in0.0 mm 0.00 in0.0 mm
02:40 AM 67.8°F19.9°C 64.2°F17.9°C 88% 1.3 mph E2.1 kmh E 3.1 mph5.0 kmh 29.93 in1013.5 mb 0.00 in0.0 mm 0.00 in0.0 mm 0.00 in0.0 mm
02:39 AM 67.8°F19.9°C 64.2°F17.9°C 88% 1.3 mph N2.1 kmh N 2.0 mph3.2 kmh 29.93 in1013.5 mb 0.00 in0.0 mm 0.00 in0.0 mm 0.00 in0.0 mm
02:38 AM 67.8°F19.9°C 64.2°F17.9°C 88% 1.8 mph NE2.9 kmh NE 3.1 mph5.0 kmh 29.93 in1013.5 mb 0.00 in0.0 mm 0.00 in0.0 mm 0.00 in0.0 mm
02:37 AM 67.8°F19.9°C 64.2°F17.9°C 88% 2.2 mph ENE3.5 kmh ENE 3.1 mph5.0 kmh 29.92 in1013.2 mb 0.00 in0.0 mm 0.00 in0.0 mm 0.00 in0.0 mm
02:36 AM 67.8°F19.9°C 64.2°F17.9°C 88% 1.6 mph E2.6 kmh E 4.3 mph6.9 kmh 29.92 in1013.2 mb 0.00 in0.0 mm 0.00 in0.0 mm 0.00 in0.0 mm
02:35 AM 67.8°F19.9°C 64.2°F17.9°C 88% 1.1 mph NNE1.8 kmh NNE 3.1 mph5.0 kmh 29.93 in1013.5 mb 0.00 in0.0 mm 0.00 in0.0 mm 0.00 in0.0 mm
02:34 AM 67.8°F19.9°C 64.2°F17.9°C 88% 1.8 mph NE2.9 kmh NE 3.1 mph5.0 kmh 29.92 in1013.2 mb 0.00 in0.0 mm 0.00 in0.0 mm 0.00 in0.0 mm
02:33 AM 67.8°F19.9°C 63.9°F17.7°C 87% 1.8 mph N2.9 kmh N 3.1 mph5.0 kmh 29.93 in1013.5 mb 0.00 in0.0 mm 0.00 in0.0 mm 0.00 in0.0 mm
02:32 AM 67.8°F19.9°C 63.9°F17.7°C 87% 1.3 mph E2.1 kmh E 4.3 mph6.9 kmh 29.92 in1013.2 mb 0.00 in0.0 mm 0.00 in0.0 mm 0.00 in0.0 mm
02:31 AM 67.8°F19.9°C 63.9°F17.7°C 87% 1.6 mph E2.6 kmh E 3.1 mph5.0 kmh 29.92 in1013.2 mb 0.00 in0.0 mm 0.00 in0.0 mm 0.00 in0.0 mm
02:30 AM 67.8°F19.9°C 63.9°F17.7°C 87% 1.8 mph SE2.9 kmh SE 3.1 mph5.0 kmh 29.92 in1013.2 mb 0.00 in0.0 mm 0.00 in0.0 mm 0.00 in0.0 mm
02:29 AM 67.8°F19.9°C 63.9°F17.7°C 87% 1.8 mph E2.9 kmh E 4.3 mph6.9 kmh 29.92 in1013.2 mb 0.00 in0.0 mm 0.00 in0.0 mm 0.00 in0.0 mm
02:28 AM 68.0°F20.0°C 64.0°F17.8°C 87% 1.8 mph NE2.9 kmh NE 4.3 mph6.9 kmh 29.92 in1013.2 mb 0.00 in0.0 mm 0.00 in0.0 mm 0.00 in0.0 mm
02:27 AM 67.8°F19.9°C 63.9°F17.7°C 87% 2.5 mph NE4.0 kmh NE 5.4 mph8.7 kmh 29.92 in1013.2 mb 0.00 in0.0 mm 0.00 in0.0 mm 0.00 in0.0 mm
02:26 AM 68.0°F20.0°C 64.0°F17.8°C 87% 2.5 mph N4.0 kmh N 5.4 mph8.7 kmh 29.92 in1013.2 mb 0.00 in0.0 mm 0.00 in0.0 mm 0.00 in0.0 mm
02:25 AM 68.0°F20.0°C 64.0°F17.8°C 87% 2.5 mph E4.0 kmh E 4.3 mph6.9 kmh 29.92 in1013.2 mb 0.00 in0.0 mm 0.00 in0.0 mm 0.00 in0.0 mm
02:24 AM 68.0°F20.0°C 64.0°F17.8°C 87% 2.7 mph NNE4.3 kmh NNE 4.3 mph6.9 kmh 29.92 in1013.2 mb 0.00 in0.0 mm 0.00 in0.0 mm 0.00 in0.0 mm
02:23 AM 67.8°F19.9°C 63.9°F17.7°C 87% 2.7 mph N4.3 kmh N 5.4 mph8.7 kmh 29.92 in1013.2 mb 0.00 in0.0 mm 0.00 in0.0 mm 0.00 in0.0 mm
02:22 AM 68.0°F20.0°C 64.0°F17.8°C 87% 3.4 mph E5.5 kmh E 5.4 mph8.7 kmh 29.92 in1013.2 mb 0.00 in0.0 mm 0.00 in0.0 mm 0.00 in0.0 mm
02:21 AM 68.0°F20.0°C 64.4°F18.0°C 88% 3.4 mph NE5.5 kmh NE 6.3 mph10.1 kmh 29.92 in1013.2 mb 0.00 in0.0 mm 0.00 in0.0 mm 0.00 in0.0 mm
02:20 AM 67.8°F19.9°C 64.2°F17.9°C 88% 2.7 mph ENE4.3 kmh ENE 6.3 mph10.1 kmh 29.92 in1013.2 mb 0.00 in0.0 mm 0.00 in0.0 mm 0.00 in0.0 mm
02:19 AM 67.8°F19.9°C 64.2°F17.9°C 88% 2.5 mph ENE4.0 kmh ENE 5.4 mph8.7 kmh 29.92 in1013.2 mb 0.00 in0.0 mm 0.00 in0.0 mm 0.00 in0.0 mm
02:18 AM 67.8°F19.9°C 64.2°F17.9°C 88% 2.0 mph NE3.2 kmh NE 3.1 mph5.0 kmh 29.91 in1012.9 mb 0.00 in0.0 mm 0.00 in0.0 mm 0.00 in0.0 mm
02:17 AM 67.8°F19.9°C 63.9°F17.7°C 87% 2.2 mph NE3.5 kmh NE 3.1 mph5.0 kmh 29.91 in1012.9 mb 0.00 in0.0 mm 0.00 in0.0 mm 0.00 in0.0 mm
02:16 AM 67.8°F19.9°C 63.9°F17.7°C 87% 2.2 mph NE3.5 kmh NE 4.3 mph6.9 kmh 29.91 in1012.9 mb 0.00 in0.0 mm 0.00 in0.0 mm 0.00 in0.0 mm
02:15 AM 67.8°F19.9°C 63.9°F17.7°C 87% 1.6 mph NE2.6 kmh NE 4.3 mph6.9 kmh 29.91 in1012.9 mb 0.00 in0.0 mm 0.00 in0.0 mm 0.00 in0.0 mm
02:14 AM 67.8°F19.9°C 63.9°F17.7°C 87% 1.6 mph NE2.6 kmh NE 2.0 mph3.2 kmh 29.91 in1012.9 mb 0.00 in0.0 mm 0.00 in0.0 mm 0.00 in0.0 mm
02:13 AM 67.8°F19.9°C 63.9°F17.7°C 87% 1.8 mph NE2.9 kmh NE 4.3 mph6.9 kmh 29.91 in1012.9 mb 0.00 in0.0 mm 0.00 in0.0 mm 0.00 in0.0 mm
02:12 AM 67.8°F19.9°C 63.9°F17.7°C 87% 1.3 mph NE2.1 kmh NE 4.3 mph6.9 kmh 29.91 in1012.9 mb 0.00 in0.0 mm 0.00 in0.0 mm 0.00 in0.0 mm
02:11 AM 67.8°F19.9°C 63.9°F17.7°C 87% 1.6 mph ESE2.6 kmh ESE 4.3 mph6.9 kmh 29.91 in1012.9 mb 0.00 in0.0 mm 0.00 in0.0 mm 0.00 in0.0 mm
02:10 AM 68.0°F20.0°C 64.0°F17.8°C 87% 1.6 mph NE2.6 kmh NE 3.1 mph5.0 kmh 29.91 in1012.9 mb 0.00 in0.0 mm 0.00 in0.0 mm 0.00 in0.0 mm
02:09 AM 67.8°F19.9°C 63.9°F17.7°C 87% 1.8 mph NE2.9 kmh NE 3.1 mph5.0 kmh 29.91 in1012.9 mb 0.00 in0.0 mm 0.00 in0.0 mm 0.00 in0.0 mm
02:08 AM 67.8°F19.9°C 63.9°F17.7°C 87% 1.6 mph NE2.6 kmh NE 3.1 mph5.0 kmh 29.91 in1012.9 mb 0.00 in0.0 mm 0.00 in0.0 mm 0.00 in0.0 mm
02:07 AM 67.8°F19.9°C 64.2°F17.9°C 88% 1.3 mph ENE2.1 kmh ENE 4.3 mph6.9 kmh 29.91 in1012.9 mb 0.00 in0.0 mm 0.00 in0.0 mm 0.00 in0.0 mm
02:06 AM 67.8°F19.9°C 64.2°F17.9°C 88% 1.6 mph N2.6 kmh N 5.4 mph8.7 kmh 29.91 in1012.9 mb 0.00 in0.0 mm 0.00 in0.0 mm 0.00 in0.0 mm
02:05 AM 67.8°F19.9°C 64.2°F17.9°C 88% 2.0 mph NNE3.2 kmh NNE 5.4 mph8.7 kmh 29.91 in1012.9 mb 0.00 in0.0 mm 0.00 in0.0 mm 0.00 in0.0 mm
02:04 AM 67.8°F19.9°C 64.2°F17.9°C 88% 2.0 mph N3.2 kmh N 3.1 mph5.0 kmh 29.91 in1012.9 mb 0.00 in0.0 mm 0.00 in0.0 mm 0.00 in0.0 mm
02:03 AM 67.8°F19.9°C 64.2°F17.9°C 88% 1.6 mph NNE2.6 kmh NNE 4.3 mph6.9 kmh 29.91 in1012.9 mb 0.00 in0.0 mm 0.00 in0.0 mm 0.00 in0.0 mm
02:02 AM 67.8°F19.9°C 64.2°F17.9°C 88% 1.6 mph ENE2.6 kmh ENE 2.0 mph3.2 kmh 29.91 in1012.9 mb 0.00 in0.0 mm 0.00 in0.0 mm 0.00 in0.0 mm
02:01 AM 67.8°F19.9°C 64.2°F17.9°C 88% 2.0 mph E3.2 kmh E 3.1 mph5.0 kmh 29.91 in1012.9 mb 0.00 in0.0 mm 0.00 in0.0 mm 0.00 in0.0 mm
02:00 AM 67.6°F19.8°C 64.0°F17.8°C 88% 1.6 mph NNE2.6 kmh NNE 4.3 mph6.9 kmh 29.91 in1012.9 mb 0.00 in0.0 mm 0.00 in0.0 mm 0.00 in0.0 mm
01:59 AM 67.6°F19.8°C 64.0°F17.8°C 88% 0.9 mph NNE1.4 kmh NNE 2.0 mph3.2 kmh 29.91 in1012.9 mb 0.00 in0.0 mm 0.00 in0.0 mm 0.00 in0.0 mm
01:58 AM 67.6°F19.8°C 64.0°F17.8°C 88% 1.6 mph NE2.6 kmh NE 3.1 mph5.0 kmh 29.91 in1012.9 mb 0.00 in0.0 mm 0.00 in0.0 mm 0.00 in0.0 mm
01:57 AM 67.6°F19.8°C 64.0°F17.8°C 88% 1.1 mph ENE1.8 kmh ENE 3.1 mph5.0 kmh 29.91 in1012.9 mb 0.00 in0.0 mm 0.00 in0.0 mm 0.00 in0.0 mm
01:56 AM 67.6°F19.8°C 64.0°F17.8°C 88% 0.2 mph NE0.3 kmh NE 1.1 mph1.8 kmh 29.91 in1012.9 mb 0.00 in0.0 mm 0.00 in0.0 mm 0.00 in0.0 mm
01:55 AM 67.6°F19.8°C 64.0°F17.8°C 88% Calm Calm 1.1 mph1.8 kmh 29.91 in1012.9 mb 0.00 in0.0 mm 0.00 in0.0 mm 0.00 in0.0 mm
01:54 AM 67.8°F19.9°C 64.2°F17.9°C 88% 0.2 mph NE0.3 kmh NE 1.1 mph1.8 kmh 29.91 in1012.9 mb 0.00 in0.0 mm 0.00 in0.0 mm 0.00 in0.0 mm
01:53 AM 67.8°F19.9°C 64.2°F17.9°C 88% 0.2 mph NE0.3 kmh NE 1.1 mph1.8 kmh 29.91 in1012.9 mb 0.00 in0.0 mm 0.00 in0.0 mm 0.00 in0.0 mm
01:52 AM 67.8°F19.9°C 64.2°F17.9°C 88% Calm Calm 1.1 mph1.8 kmh 29.91 in1012.9 mb 0.00 in0.0 mm 0.00 in0.0 mm 0.00 in0.0 mm
01:51 AM 67.6°F19.8°C 64.0°F17.8°C 88% 0.7 mph NE1.1 kmh NE 1.1 mph1.8 kmh 29.91 in1012.9 mb 0.00 in0.0 mm 0.00 in0.0 mm 0.00 in0.0 mm
01:50 AM 67.6°F19.8°C 64.0°F17.8°C 88% 0.9 mph NE1.4 kmh NE 2.0 mph3.2 kmh 29.91 in1012.9 mb 0.00 in0.0 mm 0.00 in0.0 mm 0.00 in0.0 mm
01:49 AM 67.6°F19.8°C 64.0°F17.8°C 88% 0.7 mph ENE1.1 kmh ENE 2.0 mph3.2 kmh 29.91 in1012.9 mb 0.00 in0.0 mm 0.00 in0.0 mm 0.00 in0.0 mm
01:48 AM 67.6°F19.8°C 64.0°F17.8°C 88% 0.9 mph ENE1.4 kmh ENE 2.0 mph3.2 kmh 29.91 in1012.9 mb 0.00 in0.0 mm 0.00 in0.0 mm 0.00 in0.0 mm
01:47 AM 67.6°F19.8°C 64.0°F17.8°C 88% 0.4 mph NNE0.6 kmh NNE 4.3 mph6.9 kmh 29.91 in1012.9 mb 0.00 in0.0 mm 0.00 in0.0 mm 0.00 in0.0 mm
01:46 AM 67.6°F19.8°C 64.2°F17.9°C 89% Calm Calm -- 29.91 in1012.9 mb 0.00 in0.0 mm 0.00 in0.0 mm 0.00 in0.0 mm
01:45 AM 67.5°F19.7°C 64.0°F17.8°C 89% 0.9 mph NNE1.4 kmh NNE 1.1 mph1.8 kmh 29.91 in1012.9 mb 0.00 in0.0 mm 0.00 in0.0 mm 0.00 in0.0 mm
01:44 AM 67.5°F19.7°C 64.0°F17.8°C 89% 1.3 mph ENE2.1 kmh ENE 3.1 mph5.0 kmh 29.91 in1012.9 mb 0.00 in0.0 mm 0.00 in0.0 mm 0.00 in0.0 mm
01:43 AM 67.5°F19.7°C 64.0°F17.8°C 89% 0.9 mph N1.4 kmh N 3.1 mph5.0 kmh 29.90 in1012.5 mb 0.00 in0.0 mm 0.00 in0.0 mm 0.00 in0.0 mm
01:42 AM 67.5°F19.7°C 64.0°F17.8°C 89% 0.4 mph N0.6 kmh N 2.0 mph3.2 kmh 29.90 in1012.5 mb 0.00 in0.0 mm 0.00 in0.0 mm 0.00 in0.0 mm
01:41 AM 67.5°F19.7°C 64.0°F17.8°C 89% 0.2 mph NE0.3 kmh NE 1.1 mph1.8 kmh 29.90 in1012.5 mb 0.00 in0.0 mm 0.00 in0.0 mm 0.00 in0.0 mm
01:40 AM 67.5°F19.7°C 64.0°F17.8°C 89% Calm Calm 1.1 mph1.8 kmh 29.90 in1012.5 mb 0.00 in0.0 mm 0.00 in0.0 mm 0.00 in0.0 mm
01:39 AM 67.5°F19.7°C 64.0°F17.8°C 89% 0.2 mph NE0.3 kmh NE 1.1 mph1.8 kmh 29.90 in1012.5 mb 0.00 in0.0 mm 0.00 in0.0 mm 0.00 in0.0 mm
01:38 AM 67.5°F19.7°C 64.0°F17.8°C 89% 0.2 mph NE0.3 kmh NE 1.1 mph1.8 kmh 29.90 in1012.5 mb 0.00 in0.0 mm 0.00 in0.0 mm 0.00 in0.0 mm
01:37 AM 67.5°F19.7°C 64.0°F17.8°C 89% 0.2 mph NE0.3 kmh NE 1.1 mph1.8 kmh 29.90 in1012.5 mb 0.00 in0.0 mm 0.00 in0.0 mm 0.00 in0.0 mm
01:36 AM 67.6°F19.8°C 64.2°F17.9°C 89% Calm Calm 1.1 mph1.8 kmh 29.90 in1012.5 mb 0.00 in0.0 mm 0.00 in0.0 mm 0.00 in0.0 mm
01:35 AM 67.6°F19.8°C 64.2°F17.9°C 89% Calm Calm 1.1 mph1.8 kmh 29.90 in1012.5 mb 0.00 in0.0 mm 0.00 in0.0 mm 0.00 in0.0 mm
01:34 AM 67.6°F19.8°C 64.0°F17.8°C 88% Calm Calm 1.1 mph1.8 kmh 29.90 in1012.5 mb 0.00 in0.0 mm 0.00 in0.0 mm 0.00 in0.0 mm
01:33 AM 67.6°F19.8°C 64.0°F17.8°C 88% Calm Calm -- 29.90 in1012.5 mb 0.00 in0.0 mm 0.00 in0.0 mm 0.00 in0.0 mm
01:32 AM 67.6°F19.8°C 64.0°F17.8°C 88% Calm Calm -- 29.89 in1012.2 mb 0.00 in0.0 mm 0.00 in0.0 mm 0.00 in0.0 mm
01:31 AM 67.6°F19.8°C 64.0°F17.8°C 88% Calm Calm -- 29.89 in1012.2 mb 0.00 in0.0 mm 0.00 in0.0 mm 0.00 in0.0 mm
01:30 AM 67.6°F19.8°C 64.0°F17.8°C 88% 0.2 mph NE0.3 kmh NE 1.1 mph1.8 kmh 29.89 in1012.2 mb 0.00 in0.0 mm 0.00 in0.0 mm 0.00 in0.0 mm
01:29 AM 67.6°F19.8°C 64.0°F17.8°C 88% 0.2 mph NE0.3 kmh NE 1.1 mph1.8 kmh 29.89 in1012.2 mb 0.00 in0.0 mm 0.00 in0.0 mm 0.00 in0.0 mm
01:28 AM 67.6°F19.8°C 64.0°F17.8°C 88% 0.2 mph NE0.3 kmh NE 1.1 mph1.8 kmh 29.89 in1012.2 mb 0.00 in0.0 mm 0.00 in0.0 mm 0.00 in0.0 mm
01:27 AM 67.6°F19.8°C 64.0°F17.8°C 88% Calm Calm -- 29.89 in1012.2 mb 0.00 in0.0 mm 0.00 in0.0 mm 0.00 in0.0 mm
01:26 AM 67.8°F19.9°C 64.2°F17.9°C 88% Calm Calm -- 29.89 in1012.2 mb 0.00 in0.0 mm 0.00 in0.0 mm 0.00 in0.0 mm
01:25 AM 67.8°F19.9°C 64.2°F17.9°C 88% 0.2 mph NE0.3 kmh NE 1.1 mph1.8 kmh 29.89 in1012.2 mb 0.00 in0.0 mm 0.00 in0.0 mm 0.00 in0.0 mm
01:24 AM 67.8°F19.9°C 64.2°F17.9°C 88% Calm Calm 1.1 mph1.8 kmh 29.89 in1012.2 mb 0.00 in0.0 mm 0.00 in0.0 mm 0.00 in0.0 mm
01:23 AM 67.8°F19.9°C 64.2°F17.9°C 88% Calm Calm -- 29.89 in1012.2 mb 0.00 in0.0 mm 0.00 in0.0 mm 0.00 in0.0 mm
01:22 AM 67.8°F19.9°C 64.2°F17.9°C 88% Calm Calm 1.1 mph1.8 kmh 29.89 in1012.2 mb 0.00 in0.0 mm 0.00 in0.0 mm 0.00 in0.0 mm
01:21 AM 68.0°F20.0°C 64.4°F18.0°C 88% Calm Calm -- 29.89 in1012.2 mb 0.00 in0.0 mm 0.00 in0.0 mm 0.00 in0.0 mm
01:20 AM 68.0°F20.0°C 64.4°F18.0°C 88% Calm Calm -- 29.89 in1012.2 mb 0.00 in0.0 mm 0.00 in0.0 mm 0.00 in0.0 mm
01:19 AM 68.2°F20.1°C 64.4°F18.0°C 88% Calm Calm -- 29.89 in1012.2 mb 0.00 in0.0 mm 0.00 in0.0 mm 0.00 in0.0 mm
01:18 AM 68.2°F20.1°C 64.2°F17.9°C 87% 0.2 mph NE0.3 kmh NE -- 29.89 in1012.2 mb 0.00 in0.0 mm 0.00 in0.0 mm 0.00 in0.0 mm
01:17 AM 68.2°F20.1°C 64.2°F17.9°C 87% 0.2 mph NE0.3 kmh NE 1.1 mph1.8 kmh 29.89 in1012.2 mb 0.00 in0.0 mm 0.00 in0.0 mm 0.00 in0.0 mm
01:16 AM 68.2°F20.1°C 64.2°F17.9°C 87% 0.2 mph NE0.3 kmh NE 1.1 mph1.8 kmh 29.89 in1012.2 mb 0.00 in0.0 mm 0.00 in0.0 mm 0.00 in0.0 mm
01:15 AM 68.2°F20.1°C 64.2°F17.9°C 87% 0.2 mph NE0.3 kmh NE 1.1 mph1.8 kmh 29.89 in1012.2 mb 0.00 in0.0 mm 0.00 in0.0 mm 0.00 in0.0 mm
01:14 AM 68.2°F20.1°C 64.2°F17.9°C 87% 0.4 mph NE0.6 kmh NE 1.1 mph1.8 kmh 29.89 in1012.2 mb 0.00 in0.0 mm 0.00 in0.0 mm 0.00 in0.0 mm
01:13 AM 68.2°F20.1°C 64.2°F17.9°C 87% 0.2 mph NE0.3 kmh NE 1.1 mph1.8 kmh 29.89 in1012.2 mb 0.00 in0.0 mm 0.00 in0.0 mm 0.00 in0.0 mm
01:12 AM 68.4°F20.2°C 64.4°F18.0°C 87% Calm Calm -- 29.89 in1012.2 mb 0.00 in0.0 mm 0.00 in0.0 mm 0.00 in0.0 mm
01:11 AM 68.4°F20.2°C 64.4°F18.0°C 87% Calm Calm -- 29.89 in1012.2 mb 0.00 in0.0 mm 0.00 in0.0 mm 0.00 in0.0 mm
01:10 AM 68.4°F20.2°C 64.4°F18.0°C 87% Calm Calm -- 29.89 in1012.2 mb 0.00 in0.0 mm 0.00 in0.0 mm 0.00 in0.0 mm
01:09 AM 68.4°F20.2°C 64.4°F18.0°C 87% Calm Calm 1.1 mph1.8 kmh 29.89 in1012.2 mb 0.00 in0.0 mm 0.00 in0.0 mm 0.00 in0.0 mm
01:08 AM 68.5°F20.3°C 64.2°F17.9°C 86% Calm Calm 1.1 mph1.8 kmh 29.89 in1012.2 mb 0.00 in0.0 mm 0.00 in0.0 mm 0.00 in0.0 mm
01:07 AM 68.5°F20.3°C 64.2°F17.9°C 86% Calm Calm 1.1 mph1.8 kmh 29.89 in1012.2 mb 0.00 in0.0 mm 0.00 in0.0 mm 0.00 in0.0 mm
01:06 AM 68.5°F20.3°C 64.2°F17.9°C 86% Calm Calm -- 29.89 in1012.2 mb 0.00 in0.0 mm 0.00 in0.0 mm 0.00 in0.0 mm
01:05 AM 68.7°F20.4°C 64.4°F18.0°C 86% Calm Calm 1.1 mph1.8 kmh 29.89 in1012.2 mb 0.00 in0.0 mm 0.00 in0.0 mm 0.00 in0.0 mm
01:04 AM 68.7°F20.4°C 64.4°F18.0°C 86% Calm Calm 1.1 mph1.8 kmh 29.89 in1012.2 mb 0.00 in0.0 mm 0.00 in0.0 mm 0.00 in0.0 mm
01:03 AM 68.7°F20.4°C 64.4°F18.0°C 86% Calm Calm 1.1 mph1.8 kmh 29.89 in1012.2 mb 0.00 in0.0 mm 0.00 in0.0 mm 0.00 in0.0 mm
01:02 AM 68.9°F20.5°C 64.6°F18.1°C 86% 0.2 mph NE0.3 kmh NE 1.1 mph1.8 kmh 29.89 in1012.2 mb 0.00 in0.0 mm 0.00 in0.0 mm 0.00 in0.0 mm
01:01 AM 68.9°F20.5°C 64.2°F17.9°C 85% 0.4 mph NE0.6 kmh NE 2.0 mph3.2 kmh 29.89 in1012.2 mb 0.00 in0.0 mm 0.00 in0.0 mm 0.00 in0.0 mm
01:00 AM 69.1°F20.6°C 64.4°F18.0°C 85% 0.2 mph NE0.3 kmh NE 2.0 mph3.2 kmh 29.89 in1012.2 mb 0.00 in0.0 mm 0.00 in0.0 mm 0.00 in0.0 mm
12:59 AM 69.1°F20.6°C 64.4°F18.0°C 85% 0.4 mph NE0.6 kmh NE 1.1 mph1.8 kmh 29.89 in1012.2 mb 0.00 in0.0 mm 0.00 in0.0 mm 0.00 in0.0 mm
12:58 AM 69.1°F20.6°C 64.4°F18.0°C 85% 0.7 mph NE1.1 kmh NE 2.0 mph3.2 kmh 29.88 in1011.9 mb 0.00 in0.0 mm 0.00 in0.0 mm 0.00 in0.0 mm
12:57 AM 69.1°F20.6°C 64.4°F18.0°C 85% 0.4 mph NE0.6 kmh NE 2.0 mph3.2 kmh 29.89 in1012.2 mb 0.00 in0.0 mm 0.00 in0.0 mm 0.00 in0.0 mm
12:56 AM 69.3°F20.7°C 64.6°F18.1°C 85% 0.2 mph NE0.3 kmh NE 1.1 mph1.8 kmh 29.88 in1011.9 mb 0.00 in0.0 mm 0.00 in0.0 mm 0.00 in0.0 mm
12:55 AM 69.3°F20.7°C 64.6°F18.1°C 85% 0.4 mph NE0.6 kmh NE 1.1 mph1.8 kmh 29.88 in1011.9 mb 0.00 in0.0 mm 0.00 in0.0 mm 0.00 in0.0 mm
12:54 AM 69.3°F20.7°C 64.6°F18.1°C 85% 0.7 mph NE1.1 kmh NE 1.1 mph1.8 kmh 29.89 in1012.2 mb 0.00 in0.0 mm 0.00 in0.0 mm 0.00 in0.0 mm
12:53 AM 69.4°F20.8°C 64.8°F18.2°C 85% 1.1 mph NE1.8 kmh NE 3.1 mph5.0 kmh 29.88 in1011.9 mb 0.00 in0.0 mm 0.00 in0.0 mm 0.00 in0.0 mm
12:52 AM 69.4°F20.8°C 64.4°F18.0°C 84% 0.4 mph NE0.6 kmh NE 3.1 mph5.0 kmh 29.89 in1012.2 mb 0.00 in0.0 mm 0.00 in0.0 mm 0.00 in0.0 mm
12:51 AM 69.4°F20.8°C 64.8°F18.2°C 85% 0.4 mph E0.6 kmh E 1.1 mph1.8 kmh 29.89 in1012.2 mb 0.00 in0.0 mm 0.00 in0.0 mm 0.00 in0.0 mm
12:50 AM 69.4°F20.8°C 64.4°F18.0°C 84% 0.9 mph NNE1.4 kmh NNE 2.0 mph3.2 kmh 29.89 in1012.2 mb 0.00 in0.0 mm 0.00 in0.0 mm 0.00 in0.0 mm
12:49 AM 69.6°F20.9°C 64.6°F18.1°C 84% 1.6 mph NE2.6 kmh NE 4.3 mph6.9 kmh 29.89 in1012.2 mb 0.00 in0.0 mm 0.00 in0.0 mm 0.00 in0.0 mm
12:48 AM 69.6°F20.9°C 64.6°F18.1°C 84% 2.2 mph NNE3.5 kmh NNE 4.3 mph6.9 kmh 29.89 in1012.2 mb 0.00 in0.0 mm 0.00 in0.0 mm 0.00 in0.0 mm
12:47 AM 69.6°F20.9°C 64.6°F18.1°C 84% 1.3 mph NE2.1 kmh NE 4.3 mph6.9 kmh 29.89 in1012.2 mb 0.00 in0.0 mm 0.00 in0.0 mm 0.00 in0.0 mm
12:46 AM 69.6°F20.9°C 64.6°F18.1°C 84% 0.9 mph NE1.4 kmh NE 2.0 mph3.2 kmh 29.89 in1012.2 mb 0.00 in0.0 mm 0.00 in0.0 mm 0.00 in0.0 mm
12:45 AM 69.6°F20.9°C 64.6°F18.1°C 84% 1.8 mph NE2.9 kmh NE 3.1 mph5.0 kmh 29.89 in1012.2 mb 0.00 in0.0 mm 0.00 in0.0 mm 0.00 in0.0 mm
12:44 AM 69.6°F20.9°C 64.6°F18.1°C 84% 2.0 mph NNE3.2 kmh NNE 5.4 mph8.7 kmh 29.89 in1012.2 mb 0.00 in0.0 mm 0.00 in0.0 mm 0.00 in0.0 mm
12:43 AM 69.6°F20.9°C 64.6°F18.1°C 84% 2.0 mph NNE3.2 kmh NNE 3.1 mph5.0 kmh 29.89 in1012.2 mb 0.00 in0.0 mm 0.00 in0.0 mm 0.00 in0.0 mm
12:42 AM 69.6°F20.9°C 64.6°F18.1°C 84% 1.3 mph NE2.1 kmh NE 4.3 mph6.9 kmh 29.89 in1012.2 mb 0.00 in0.0 mm 0.00 in0.0 mm 0.00 in0.0 mm
12:41 AM 69.8°F21.0°C 64.8°F18.2°C 84% 1.3 mph N2.1 kmh N 3.1 mph5.0 kmh 29.89 in1012.2 mb 0.00 in0.0 mm 0.00 in0.0 mm 0.00 in0.0 mm
12:40 AM 69.8°F21.0°C 64.8°F18.2°C 84% 1.6 mph N2.6 kmh N 3.1 mph5.0 kmh 29.89 in1012.2 mb 0.00 in0.0 mm 0.00 in0.0 mm 0.00 in0.0 mm
12:39 AM 69.8°F21.0°C 64.8°F18.2°C 84% 2.2 mph NE3.5 kmh NE 3.1 mph5.0 kmh 29.89 in1012.2 mb 0.00 in0.0 mm 0.00 in0.0 mm 0.00 in0.0 mm
12:38 AM 70.0°F21.1°C 64.9°F18.3°C 84% 2.7 mph ENE4.3 kmh ENE 5.4 mph8.7 kmh 29.89 in1012.2 mb 0.00 in0.0 mm 0.00 in0.0 mm 0.00 in0.0 mm
12:37 AM 70.0°F21.1°C 64.9°F18.3°C 84% 2.0 mph NE3.2 kmh NE 4.3 mph6.9 kmh 29.89 in1012.2 mb 0.00 in0.0 mm 0.00 in0.0 mm 0.00 in0.0 mm
12:36 AM 70.0°F21.1°C 64.9°F18.3°C 84% 1.8 mph NE2.9 kmh NE 5.4 mph8.7 kmh 29.89 in1012.2 mb 0.00 in0.0 mm 0.00 in0.0 mm 0.00 in0.0 mm
12:35 AM 70.0°F21.1°C 64.9°F18.3°C 84% 2.0 mph ENE3.2 kmh ENE 4.3 mph6.9 kmh 29.89 in1012.2 mb 0.00 in0.0 mm 0.00 in0.0 mm 0.00 in0.0 mm
12:34 AM 70.0°F21.1°C 64.6°F18.1°C 83% 2.0 mph NE3.2 kmh NE 4.3 mph6.9 kmh 29.89 in1012.2 mb 0.00 in0.0 mm 0.00 in0.0 mm 0.00 in0.0 mm
12:33 AM 70.0°F21.1°C 64.9°F18.3°C 84% 1.1 mph ENE1.8 kmh ENE 3.1 mph5.0 kmh 29.89 in1012.2 mb 0.00 in0.0 mm 0.00 in0.0 mm 0.00 in0.0 mm
12:32 AM 70.0°F21.1°C 64.6°F18.1°C 83% 1.1 mph NE1.8 kmh NE 3.1 mph5.0 kmh 29.89 in1012.2 mb 0.00 in0.0 mm 0.00 in0.0 mm 0.00 in0.0 mm
12:31 AM 70.2°F21.2°C 65.1°F18.4°C 84% 1.1 mph NNE1.8 kmh NNE 3.1 mph5.0 kmh 29.90 in1012.5 mb 0.00 in0.0 mm 0.00 in0.0 mm 0.00 in0.0 mm
12:30 AM 70.2°F21.2°C 64.8°F18.2°C 83% 1.8 mph ENE2.9 kmh ENE 3.1 mph5.0 kmh 29.90 in1012.5 mb 0.00 in0.0 mm 0.00 in0.0 mm 0.00 in0.0 mm
12:29 AM 70.2°F21.2°C 64.8°F18.2°C 83% 2.9 mph NE4.7 kmh NE 4.3 mph6.9 kmh 29.89 in1012.2 mb 0.00 in0.0 mm 0.00 in0.0 mm 0.00 in0.0 mm
12:28 AM 70.2°F21.2°C 65.1°F18.4°C 84% 2.5 mph NE4.0 kmh NE 5.4 mph8.7 kmh 29.89 in1012.2 mb 0.00 in0.0 mm 0.00 in0.0 mm 0.00 in0.0 mm
12:27 AM 70.2°F21.2°C 64.8°F18.2°C 83% 1.8 mph NE2.9 kmh NE 4.3 mph6.9 kmh 29.89 in1012.2 mb 0.00 in0.0 mm 0.00 in0.0 mm 0.00 in0.0 mm
12:26 AM 70.2°F21.2°C 65.1°F18.4°C 84% 1.3 mph NE2.1 kmh NE 4.3 mph6.9 kmh 29.89 in1012.2 mb 0.00 in0.0 mm 0.00 in0.0 mm 0.00 in0.0 mm
12:25 AM 70.2°F21.2°C 65.1°F18.4°C 84% 2.0 mph NNE3.2 kmh NNE 5.4 mph8.7 kmh 29.89 in1012.2 mb 0.00 in0.0 mm 0.00 in0.0 mm 0.00 in0.0 mm
12:23 AM 70.2°F21.2°C 64.8°F18.2°C 83% 2.5 mph NE4.0 kmh NE 5.4 mph8.7 kmh 29.89 in1012.2 mb 0.00 in0.0 mm 0.00 in0.0 mm 0.00 in0.0 mm
12:22 AM 70.2°F21.2°C 64.8°F18.2°C 83% 1.8 mph NE2.9 kmh NE 5.4 mph8.7 kmh 29.89 in1012.2 mb 0.00 in0.0 mm 0.00 in0.0 mm 0.00 in0.0 mm
12:21 AM 70.2°F21.2°C 65.1°F18.4°C 84% 1.3 mph NE2.1 kmh NE 4.3 mph6.9 kmh 29.89 in1012.2 mb 0.00 in0.0 mm 0.00 in0.0 mm 0.00 in0.0 mm
12:20 AM 70.2°F21.2°C 65.1°F18.4°C 84% 1.6 mph NE2.6 kmh NE 3.1 mph5.0 kmh 29.89 in1012.2 mb 0.00 in0.0 mm 0.00 in0.0 mm 0.00 in0.0 mm
12:19 AM 70.2°F21.2°C 65.1°F18.4°C 84% 1.6 mph NE2.6 kmh NE 3.1 mph5.0 kmh 29.89 in1012.2 mb 0.00 in0.0 mm 0.00 in0.0 mm 0.00 in0.0 mm
12:18 AM 70.2°F21.2°C 65.1°F18.4°C 84% 1.3 mph ENE2.1 kmh ENE 3.1 mph5.0 kmh 29.88 in1011.9 mb 0.00 in0.0 mm 0.00 in0.0 mm 0.00 in0.0 mm
12:17 AM 70.2°F21.2°C 65.1°F18.4°C 84% 2.7 mph NE4.3 kmh NE 5.4 mph8.7 kmh 29.89 in1012.2 mb 0.00 in0.0 mm 0.00 in0.0 mm 0.00 in0.0 mm
12:16 AM 70.0°F21.1°C 64.9°F18.3°C 84% 2.9 mph NE4.7 kmh NE 5.4 mph8.7 kmh 29.88 in1011.9 mb 0.00 in0.0 mm 0.00 in0.0 mm 0.00 in0.0 mm
12:15 AM 70.0°F21.1°C 64.9°F18.3°C 84% 2.5 mph ENE4.0 kmh ENE 5.4 mph8.7 kmh 29.89 in1012.2 mb 0.00 in0.0 mm 0.00 in0.0 mm 0.00 in0.0 mm
12:14 AM 70.0°F21.1°C 64.9°F18.3°C 84% 2.2 mph NE3.5 kmh NE 4.3 mph6.9 kmh 29.88 in1011.9 mb 0.00 in0.0 mm 0.00 in0.0 mm 0.00 in0.0 mm
12:13 AM 70.0°F21.1°C 64.9°F18.3°C 84% 1.6 mph ENE2.6 kmh ENE 4.3 mph6.9 kmh 29.88 in1011.9 mb 0.00 in0.0 mm 0.00 in0.0 mm 0.00 in0.0 mm
12:12 AM 70.0°F21.1°C 65.3°F18.5°C 85% 0.7 mph NNE1.1 kmh NNE 2.0 mph3.2 kmh 29.88 in1011.9 mb 0.00 in0.0 mm 0.00 in0.0 mm 0.00 in0.0 mm
12:11 AM 70.0°F21.1°C 65.3°F18.5°C 85% 1.6 mph NE2.6 kmh NE 3.1 mph5.0 kmh 29.89 in1012.2 mb 0.00 in0.0 mm 0.00 in0.0 mm 0.00 in0.0 mm
12:09 AM 70.0°F21.1°C 65.3°F18.5°C 85% 2.5 mph NE4.0 kmh NE 3.1 mph5.0 kmh 29.88 in1011.9 mb 0.00 in0.0 mm 0.00 in0.0 mm 0.00 in0.0 mm
12:08 AM 70.0°F21.1°C 65.3°F18.5°C 85% 2.5 mph NE4.0 kmh NE 4.3 mph6.9 kmh 29.88 in1011.9 mb 0.00 in0.0 mm 0.00 in0.0 mm 0.00 in0.0 mm
12:07 AM 70.0°F21.1°C 65.3°F18.5°C 85% 2.2 mph NNE3.5 kmh NNE 3.1 mph5.0 kmh 29.88 in1011.9 mb 0.00 in0.0 mm 0.00 in0.0 mm 0.00 in0.0 mm
12:06 AM 70.0°F21.1°C 65.3°F18.5°C 85% 1.3 mph NNE2.1 kmh NNE 3.1 mph5.0 kmh 29.89 in1012.2 mb 0.00 in0.0 mm 0.00 in0.0 mm 0.00 in0.0 mm
12:05 AM 70.0°F21.1°C 65.3°F18.5°C 85% 1.1 mph NE1.8 kmh NE 3.1 mph5.0 kmh 29.89 in1012.2 mb 0.00 in0.0 mm 0.00 in0.0 mm 0.00 in0.0 mm
12:04 AM 70.0°F21.1°C 65.3°F18.5°C 85% 1.3 mph NE2.1 kmh NE 3.1 mph5.0 kmh 29.88 in1011.9 mb 0.00 in0.0 mm 0.00 in0.0 mm 0.00 in0.0 mm
12:03 AM 70.0°F21.1°C 65.3°F18.5°C 85% 1.3 mph N2.1 kmh N 2.0 mph3.2 kmh 29.88 in1011.9 mb 0.00 in0.0 mm 0.00 in0.0 mm 0.00 in0.0 mm
12:02 AM 70.2°F21.2°C 65.5°F18.6°C 85% 1.1 mph NE1.8 kmh NE 2.0 mph3.2 kmh 29.88 in1011.9 mb 0.00 in0.0 mm 0.00 in0.0 mm 0.00 in0.0 mm
12:01 AM 70.2°F21.2°C 65.5°F18.6°C 85% 1.1 mph NE1.8 kmh NE 3.1 mph5.0 kmh 29.88 in1011.9 mb 0.00 in0.0 mm 0.00 in0.0 mm 0.00 in0.0 mm
12:00 AM 70.2°F21.2°C 65.5°F18.6°C 85% 1.6 mph NNE2.6 kmh NNE 3.1 mph5.0 kmh 29.89 in1012.2 mb 0.00 in0.0 mm 0.00 in0.0 mm 0.00 in0.0 mm